<?xml version="1.0" encoding="UTF-8" standalone="no" ?>
<gpx xmlns="http://www.topografix.com/GPX/1/1" xmlns:xsi="http://www.w3.org/2001/XMLSchema-instance" xsi:schemaLocation="http://www.topografix.com/GPX/1/1 http://www.topografix.com/GPX/1/1/gpx.xsd" version="1.1" creator="VisuGPX - https://www.visugpx.com">
  <metadata>
    <name>Simiane-La-Rotonde</name>
    <desc><![CDATA[boucle de 16 Km avec un dénivelé cumulé de 560m]]></desc>
  </metadata>
  <wpt lat="43.98237" lon="5.53828">
    <ele>784.870972</ele>
    <name><![CDATA[002]]></name>
  </wpt>
  <wpt lat="43.97245" lon="5.53926">
    <ele>900.403564</ele>
    <name><![CDATA[003]]></name>
  </wpt>
  <trk>
    <name><![CDATA[Tracé actuel: 21 OCT 2015 09:54]]></name>
    <trkseg>
      <trkpt lat="43.97946" lon="5.56393">
        <ele>639.63</ele>
        <time>2015-10-21T07:54:28Z</time>
      </trkpt>
      <trkpt lat="43.97946" lon="5.56393">
        <ele>639.63</ele>
        <time>2015-10-21T07:54:29Z</time>
      </trkpt>
      <trkpt lat="43.97946" lon="5.56391">
        <ele>638.82</ele>
        <time>2015-10-21T07:55:00Z</time>
      </trkpt>
      <trkpt lat="43.97943" lon="5.5639">
        <ele>638.13</ele>
        <time>2015-10-21T07:55:24Z</time>
      </trkpt>
      <trkpt lat="43.97944" lon="5.56389">
        <ele>638.86</ele>
        <time>2015-10-21T07:55:58Z</time>
      </trkpt>
      <trkpt lat="43.97943" lon="5.56391">
        <ele>637.97</ele>
        <time>2015-10-21T07:56:27Z</time>
      </trkpt>
      <trkpt lat="43.97943" lon="5.56391">
        <ele>639.35</ele>
        <time>2015-10-21T07:56:34Z</time>
      </trkpt>
      <trkpt lat="43.97942" lon="5.56388">
        <ele>638.94</ele>
        <time>2015-10-21T07:57:00Z</time>
      </trkpt>
      <trkpt lat="43.97944" lon="5.56384">
        <ele>638.87</ele>
        <time>2015-10-21T07:57:28Z</time>
      </trkpt>
      <trkpt lat="43.97944" lon="5.56382">
        <ele>638.75</ele>
        <time>2015-10-21T07:57:55Z</time>
      </trkpt>
      <trkpt lat="43.97941" lon="5.5638">
        <ele>638.74</ele>
        <time>2015-10-21T07:58:19Z</time>
      </trkpt>
      <trkpt lat="43.97948" lon="5.56359">
        <ele>639.53</ele>
        <time>2015-10-21T07:58:43Z</time>
      </trkpt>
      <trkpt lat="43.97956" lon="5.56333">
        <ele>640.36</ele>
        <time>2015-10-21T07:59:04Z</time>
      </trkpt>
      <trkpt lat="43.97966" lon="5.5633">
        <ele>642.68</ele>
        <time>2015-10-21T07:59:19Z</time>
      </trkpt>
      <trkpt lat="43.97983" lon="5.56341">
        <ele>645.76</ele>
        <time>2015-10-21T07:59:42Z</time>
      </trkpt>
      <trkpt lat="43.98003" lon="5.56334">
        <ele>648.39</ele>
        <time>2015-10-21T08:00:03Z</time>
      </trkpt>
      <trkpt lat="43.98016" lon="5.56324">
        <ele>651.77</ele>
        <time>2015-10-21T08:00:22Z</time>
      </trkpt>
      <trkpt lat="43.98025" lon="5.56321">
        <ele>653.7</ele>
        <time>2015-10-21T08:00:33Z</time>
      </trkpt>
      <trkpt lat="43.98041" lon="5.56322">
        <ele>656.48</ele>
        <time>2015-10-21T08:00:57Z</time>
      </trkpt>
      <trkpt lat="43.98056" lon="5.56332">
        <ele>659.93</ele>
        <time>2015-10-21T08:01:20Z</time>
      </trkpt>
      <trkpt lat="43.98069" lon="5.56337">
        <ele>663.06</ele>
        <time>2015-10-21T08:01:39Z</time>
      </trkpt>
      <trkpt lat="43.98083" lon="5.56339">
        <ele>665.48</ele>
        <time>2015-10-21T08:01:57Z</time>
      </trkpt>
      <trkpt lat="43.98101" lon="5.56341">
        <ele>668.28</ele>
        <time>2015-10-21T08:02:19Z</time>
      </trkpt>
      <trkpt lat="43.98119" lon="5.56348">
        <ele>671.01</ele>
        <time>2015-10-21T08:02:42Z</time>
      </trkpt>
      <trkpt lat="43.98128" lon="5.56345">
        <ele>672.15</ele>
        <time>2015-10-21T08:03:01Z</time>
      </trkpt>
      <trkpt lat="43.9812" lon="5.56339">
        <ele>673.48</ele>
        <time>2015-10-21T08:03:19Z</time>
      </trkpt>
      <trkpt lat="43.98111" lon="5.56335">
        <ele>676.83</ele>
        <time>2015-10-21T08:03:30Z</time>
      </trkpt>
      <trkpt lat="43.981" lon="5.56332">
        <ele>677.3</ele>
        <time>2015-10-21T08:03:45Z</time>
      </trkpt>
      <trkpt lat="43.98098" lon="5.56326">
        <ele>678.85</ele>
        <time>2015-10-21T08:04:03Z</time>
      </trkpt>
      <trkpt lat="43.98096" lon="5.56324">
        <ele>678.67</ele>
        <time>2015-10-21T08:04:29Z</time>
      </trkpt>
      <trkpt lat="43.98096" lon="5.5632">
        <ele>678.52</ele>
        <time>2015-10-21T08:04:52Z</time>
      </trkpt>
      <trkpt lat="43.98098" lon="5.56315">
        <ele>678.76</ele>
        <time>2015-10-21T08:05:25Z</time>
      </trkpt>
      <trkpt lat="43.98099" lon="5.56318">
        <ele>679.06</ele>
        <time>2015-10-21T08:05:57Z</time>
      </trkpt>
      <trkpt lat="43.98099" lon="5.56317">
        <ele>678.57</ele>
        <time>2015-10-21T08:06:35Z</time>
      </trkpt>
      <trkpt lat="43.981" lon="5.56319">
        <ele>679.46</ele>
        <time>2015-10-21T08:07:00Z</time>
      </trkpt>
      <trkpt lat="43.98101" lon="5.56314">
        <ele>678.52</ele>
        <time>2015-10-21T08:07:27Z</time>
      </trkpt>
      <trkpt lat="43.981" lon="5.56314">
        <ele>679.1</ele>
        <time>2015-10-21T08:07:53Z</time>
      </trkpt>
      <trkpt lat="43.98097" lon="5.56315">
        <ele>679.13</ele>
        <time>2015-10-21T08:08:25Z</time>
      </trkpt>
      <trkpt lat="43.98095" lon="5.56313">
        <ele>680.35</ele>
        <time>2015-10-21T08:08:44Z</time>
      </trkpt>
      <trkpt lat="43.98088" lon="5.56307">
        <ele>682.35</ele>
        <time>2015-10-21T08:08:57Z</time>
      </trkpt>
      <trkpt lat="43.98081" lon="5.56298">
        <ele>683.8</ele>
        <time>2015-10-21T08:09:10Z</time>
      </trkpt>
      <trkpt lat="43.98075" lon="5.56288">
        <ele>685.35</ele>
        <time>2015-10-21T08:09:22Z</time>
      </trkpt>
      <trkpt lat="43.98071" lon="5.56284">
        <ele>687.29</ele>
        <time>2015-10-21T08:09:28Z</time>
      </trkpt>
      <trkpt lat="43.98069" lon="5.5628">
        <ele>687.01</ele>
        <time>2015-10-21T08:09:33Z</time>
      </trkpt>
      <trkpt lat="43.98069" lon="5.56267">
        <ele>687.72</ele>
        <time>2015-10-21T08:09:44Z</time>
      </trkpt>
      <trkpt lat="43.98068" lon="5.56262">
        <ele>687.84</ele>
        <time>2015-10-21T08:09:48Z</time>
      </trkpt>
      <trkpt lat="43.98067" lon="5.56261">
        <ele>688.96</ele>
        <time>2015-10-21T08:09:50Z</time>
      </trkpt>
      <trkpt lat="43.98062" lon="5.56237">
        <ele>689.83</ele>
        <time>2015-10-21T08:10:10Z</time>
      </trkpt>
      <trkpt lat="43.98057" lon="5.56223">
        <ele>690.36</ele>
        <time>2015-10-21T08:10:26Z</time>
      </trkpt>
      <trkpt lat="43.98059" lon="5.56219">
        <ele>692.78</ele>
        <time>2015-10-21T08:10:48Z</time>
      </trkpt>
      <trkpt lat="43.98059" lon="5.56227">
        <ele>693.67</ele>
        <time>2015-10-21T08:11:00Z</time>
      </trkpt>
      <trkpt lat="43.9806" lon="5.56233">
        <ele>693.05</ele>
        <time>2015-10-21T08:11:11Z</time>
      </trkpt>
      <trkpt lat="43.98061" lon="5.5622">
        <ele>694.35</ele>
        <time>2015-10-21T08:11:30Z</time>
      </trkpt>
      <trkpt lat="43.98063" lon="5.56216">
        <ele>693.57</ele>
        <time>2015-10-21T08:11:34Z</time>
      </trkpt>
      <trkpt lat="43.98061" lon="5.56202">
        <ele>693.7</ele>
        <time>2015-10-21T08:11:54Z</time>
      </trkpt>
      <trkpt lat="43.98059" lon="5.56198">
        <ele>693.48</ele>
        <time>2015-10-21T08:11:58Z</time>
      </trkpt>
      <trkpt lat="43.98055" lon="5.56197">
        <ele>693.85</ele>
        <time>2015-10-21T08:12:04Z</time>
      </trkpt>
      <trkpt lat="43.98045" lon="5.56199">
        <ele>695.59</ele>
        <time>2015-10-21T08:12:19Z</time>
      </trkpt>
      <trkpt lat="43.98066" lon="5.56192">
        <ele>698.41</ele>
        <time>2015-10-21T08:12:34Z</time>
      </trkpt>
      <trkpt lat="43.9807" lon="5.56187">
        <ele>699.42</ele>
        <time>2015-10-21T08:12:41Z</time>
      </trkpt>
      <trkpt lat="43.98071" lon="5.56182">
        <ele>699.73</ele>
        <time>2015-10-21T08:12:47Z</time>
      </trkpt>
      <trkpt lat="43.98071" lon="5.56182">
        <ele>702.71</ele>
        <time>2015-10-21T08:13:02Z</time>
      </trkpt>
      <trkpt lat="43.98071" lon="5.56184">
        <ele>703.04</ele>
        <time>2015-10-21T08:13:04Z</time>
      </trkpt>
      <trkpt lat="43.98077" lon="5.56199">
        <ele>703.62</ele>
        <time>2015-10-21T08:13:23Z</time>
      </trkpt>
      <trkpt lat="43.98073" lon="5.56197">
        <ele>703.81</ele>
        <time>2015-10-21T08:13:34Z</time>
      </trkpt>
      <trkpt lat="43.98079" lon="5.56195">
        <ele>703.36</ele>
        <time>2015-10-21T08:14:02Z</time>
      </trkpt>
      <trkpt lat="43.98089" lon="5.56189">
        <ele>705.01</ele>
        <time>2015-10-21T08:14:26Z</time>
      </trkpt>
      <trkpt lat="43.98099" lon="5.56183">
        <ele>708.11</ele>
        <time>2015-10-21T08:14:44Z</time>
      </trkpt>
      <trkpt lat="43.98104" lon="5.56169">
        <ele>710.93</ele>
        <time>2015-10-21T08:15:04Z</time>
      </trkpt>
      <trkpt lat="43.98106" lon="5.56158">
        <ele>713.95</ele>
        <time>2015-10-21T08:15:18Z</time>
      </trkpt>
      <trkpt lat="43.98112" lon="5.56149">
        <ele>715.3</ele>
        <time>2015-10-21T08:15:37Z</time>
      </trkpt>
      <trkpt lat="43.98112" lon="5.5614">
        <ele>715.2</ele>
        <time>2015-10-21T08:15:53Z</time>
      </trkpt>
      <trkpt lat="43.98113" lon="5.5614">
        <ele>714.93</ele>
        <time>2015-10-21T08:16:13Z</time>
      </trkpt>
      <trkpt lat="43.98124" lon="5.5613">
        <ele>717.84</ele>
        <time>2015-10-21T08:16:32Z</time>
      </trkpt>
      <trkpt lat="43.98126" lon="5.56121">
        <ele>718.13</ele>
        <time>2015-10-21T08:16:50Z</time>
      </trkpt>
      <trkpt lat="43.98128" lon="5.5612">
        <ele>718.82</ele>
        <time>2015-10-21T08:17:06Z</time>
      </trkpt>
      <trkpt lat="43.98126" lon="5.56119">
        <ele>718.3</ele>
        <time>2015-10-21T08:17:31Z</time>
      </trkpt>
      <trkpt lat="43.98137" lon="5.56109">
        <ele>718.63</ele>
        <time>2015-10-21T08:17:46Z</time>
      </trkpt>
      <trkpt lat="43.98141" lon="5.56104">
        <ele>718.9</ele>
        <time>2015-10-21T08:18:03Z</time>
      </trkpt>
      <trkpt lat="43.98138" lon="5.56103">
        <ele>719.1</ele>
        <time>2015-10-21T08:18:37Z</time>
      </trkpt>
      <trkpt lat="43.9814" lon="5.56087">
        <ele>719.86</ele>
        <time>2015-10-21T08:18:59Z</time>
      </trkpt>
      <trkpt lat="43.98142" lon="5.56079">
        <ele>720.83</ele>
        <time>2015-10-21T08:19:17Z</time>
      </trkpt>
      <trkpt lat="43.98144" lon="5.56063">
        <ele>721</ele>
        <time>2015-10-21T08:19:36Z</time>
      </trkpt>
      <trkpt lat="43.9815" lon="5.5604">
        <ele>722.42</ele>
        <time>2015-10-21T08:19:57Z</time>
      </trkpt>
      <trkpt lat="43.98157" lon="5.5602">
        <ele>723.97</ele>
        <time>2015-10-21T08:20:17Z</time>
      </trkpt>
      <trkpt lat="43.98161" lon="5.56003">
        <ele>725.32</ele>
        <time>2015-10-21T08:20:30Z</time>
      </trkpt>
      <trkpt lat="43.98168" lon="5.55982">
        <ele>727.7</ele>
        <time>2015-10-21T08:20:48Z</time>
      </trkpt>
      <trkpt lat="43.98174" lon="5.55965">
        <ele>729.15</ele>
        <time>2015-10-21T08:21:05Z</time>
      </trkpt>
      <trkpt lat="43.98179" lon="5.55951">
        <ele>730.86</ele>
        <time>2015-10-21T08:21:20Z</time>
      </trkpt>
      <trkpt lat="43.98185" lon="5.55932">
        <ele>733.17</ele>
        <time>2015-10-21T08:21:39Z</time>
      </trkpt>
      <trkpt lat="43.98189" lon="5.5592">
        <ele>734.85</ele>
        <time>2015-10-21T08:21:51Z</time>
      </trkpt>
      <trkpt lat="43.9819" lon="5.55912">
        <ele>735.75</ele>
        <time>2015-10-21T08:21:58Z</time>
      </trkpt>
      <trkpt lat="43.98196" lon="5.55894">
        <ele>737.48</ele>
        <time>2015-10-21T08:22:17Z</time>
      </trkpt>
      <trkpt lat="43.98198" lon="5.55885">
        <ele>739.25</ele>
        <time>2015-10-21T08:22:33Z</time>
      </trkpt>
      <trkpt lat="43.98202" lon="5.55872">
        <ele>740.9</ele>
        <time>2015-10-21T08:22:50Z</time>
      </trkpt>
      <trkpt lat="43.98205" lon="5.55856">
        <ele>743</ele>
        <time>2015-10-21T08:23:07Z</time>
      </trkpt>
      <trkpt lat="43.98211" lon="5.5584">
        <ele>746.49</ele>
        <time>2015-10-21T08:23:23Z</time>
      </trkpt>
      <trkpt lat="43.98212" lon="5.55837">
        <ele>744.73</ele>
        <time>2015-10-21T08:23:26Z</time>
      </trkpt>
      <trkpt lat="43.9822" lon="5.55818">
        <ele>747.81</ele>
        <time>2015-10-21T08:23:44Z</time>
      </trkpt>
      <trkpt lat="43.98226" lon="5.55801">
        <ele>748.84</ele>
        <time>2015-10-21T08:23:59Z</time>
      </trkpt>
      <trkpt lat="43.98232" lon="5.55785">
        <ele>750.98</ele>
        <time>2015-10-21T08:24:13Z</time>
      </trkpt>
      <trkpt lat="43.9824" lon="5.55772">
        <ele>752.45</ele>
        <time>2015-10-21T08:24:28Z</time>
      </trkpt>
      <trkpt lat="43.98246" lon="5.55767">
        <ele>754.24</ele>
        <time>2015-10-21T08:24:50Z</time>
      </trkpt>
      <trkpt lat="43.98247" lon="5.55776">
        <ele>752.71</ele>
        <time>2015-10-21T08:25:08Z</time>
      </trkpt>
      <trkpt lat="43.98246" lon="5.55766">
        <ele>753.63</ele>
        <time>2015-10-21T08:25:38Z</time>
      </trkpt>
      <trkpt lat="43.98244" lon="5.55761">
        <ele>754.46</ele>
        <time>2015-10-21T08:25:44Z</time>
      </trkpt>
      <trkpt lat="43.98245" lon="5.55743">
        <ele>754.97</ele>
        <time>2015-10-21T08:26:02Z</time>
      </trkpt>
      <trkpt lat="43.98248" lon="5.55728">
        <ele>756.14</ele>
        <time>2015-10-21T08:26:20Z</time>
      </trkpt>
      <trkpt lat="43.98247" lon="5.55709">
        <ele>758.44</ele>
        <time>2015-10-21T08:26:36Z</time>
      </trkpt>
      <trkpt lat="43.98251" lon="5.5569">
        <ele>760.62</ele>
        <time>2015-10-21T08:26:55Z</time>
      </trkpt>
      <trkpt lat="43.9825" lon="5.55674">
        <ele>761.65</ele>
        <time>2015-10-21T08:27:16Z</time>
      </trkpt>
      <trkpt lat="43.98252" lon="5.5567">
        <ele>762</ele>
        <time>2015-10-21T08:27:32Z</time>
      </trkpt>
      <trkpt lat="43.98255" lon="5.55655">
        <ele>762.32</ele>
        <time>2015-10-21T08:27:50Z</time>
      </trkpt>
      <trkpt lat="43.98257" lon="5.55638">
        <ele>764.05</ele>
        <time>2015-10-21T08:28:09Z</time>
      </trkpt>
      <trkpt lat="43.98257" lon="5.55619">
        <ele>766</ele>
        <time>2015-10-21T08:28:28Z</time>
      </trkpt>
      <trkpt lat="43.98263" lon="5.55603">
        <ele>765.88</ele>
        <time>2015-10-21T08:28:51Z</time>
      </trkpt>
      <trkpt lat="43.98267" lon="5.55588">
        <ele>767.35</ele>
        <time>2015-10-21T08:29:11Z</time>
      </trkpt>
      <trkpt lat="43.98267" lon="5.55575">
        <ele>767.79</ele>
        <time>2015-10-21T08:29:28Z</time>
      </trkpt>
      <trkpt lat="43.98269" lon="5.55563">
        <ele>768.73</ele>
        <time>2015-10-21T08:29:41Z</time>
      </trkpt>
      <trkpt lat="43.98267" lon="5.55548">
        <ele>769.38</ele>
        <time>2015-10-21T08:29:58Z</time>
      </trkpt>
      <trkpt lat="43.98267" lon="5.55546">
        <ele>768.9</ele>
        <time>2015-10-21T08:30:19Z</time>
      </trkpt>
      <trkpt lat="43.98268" lon="5.55547">
        <ele>767.78</ele>
        <time>2015-10-21T08:30:35Z</time>
      </trkpt>
      <trkpt lat="43.98266" lon="5.55548">
        <ele>769.17</ele>
        <time>2015-10-21T08:30:59Z</time>
      </trkpt>
      <trkpt lat="43.98267" lon="5.55548">
        <ele>769.01</ele>
        <time>2015-10-21T08:31:20Z</time>
      </trkpt>
      <trkpt lat="43.9827" lon="5.55544">
        <ele>770.24</ele>
        <time>2015-10-21T08:31:38Z</time>
      </trkpt>
      <trkpt lat="43.98275" lon="5.5553">
        <ele>770.34</ele>
        <time>2015-10-21T08:31:51Z</time>
      </trkpt>
      <trkpt lat="43.98279" lon="5.55511">
        <ele>771.22</ele>
        <time>2015-10-21T08:32:06Z</time>
      </trkpt>
      <trkpt lat="43.98283" lon="5.55497">
        <ele>771.78</ele>
        <time>2015-10-21T08:32:16Z</time>
      </trkpt>
      <trkpt lat="43.9828" lon="5.55477">
        <ele>772.84</ele>
        <time>2015-10-21T08:32:30Z</time>
      </trkpt>
      <trkpt lat="43.98278" lon="5.55456">
        <ele>772.97</ele>
        <time>2015-10-21T08:32:45Z</time>
      </trkpt>
      <trkpt lat="43.98278" lon="5.55432">
        <ele>773.8</ele>
        <time>2015-10-21T08:33:01Z</time>
      </trkpt>
      <trkpt lat="43.9828" lon="5.55413">
        <ele>774.9</ele>
        <time>2015-10-21T08:33:15Z</time>
      </trkpt>
      <trkpt lat="43.98281" lon="5.55394">
        <ele>775.91</ele>
        <time>2015-10-21T08:33:28Z</time>
      </trkpt>
      <trkpt lat="43.98278" lon="5.55368">
        <ele>776.29</ele>
        <time>2015-10-21T08:33:48Z</time>
      </trkpt>
      <trkpt lat="43.98274" lon="5.55349">
        <ele>778.8</ele>
        <time>2015-10-21T08:34:03Z</time>
      </trkpt>
      <trkpt lat="43.98273" lon="5.55342">
        <ele>779.78</ele>
        <time>2015-10-21T08:34:08Z</time>
      </trkpt>
      <trkpt lat="43.98267" lon="5.55317">
        <ele>781.6</ele>
        <time>2015-10-21T08:34:29Z</time>
      </trkpt>
      <trkpt lat="43.98264" lon="5.55292">
        <ele>783.37</ele>
        <time>2015-10-21T08:34:48Z</time>
      </trkpt>
      <trkpt lat="43.98259" lon="5.55276">
        <ele>784.18</ele>
        <time>2015-10-21T08:34:59Z</time>
      </trkpt>
      <trkpt lat="43.98255" lon="5.55252">
        <ele>785.22</ele>
        <time>2015-10-21T08:35:15Z</time>
      </trkpt>
      <trkpt lat="43.98253" lon="5.55246">
        <ele>785.19</ele>
        <time>2015-10-21T08:35:37Z</time>
      </trkpt>
      <trkpt lat="43.98251" lon="5.55241">
        <ele>785.31</ele>
        <time>2015-10-21T08:36:06Z</time>
      </trkpt>
      <trkpt lat="43.9825" lon="5.55227">
        <ele>787.12</ele>
        <time>2015-10-21T08:36:27Z</time>
      </trkpt>
      <trkpt lat="43.98252" lon="5.55202">
        <ele>787.72</ele>
        <time>2015-10-21T08:36:48Z</time>
      </trkpt>
      <trkpt lat="43.98253" lon="5.55185">
        <ele>787.81</ele>
        <time>2015-10-21T08:37:06Z</time>
      </trkpt>
      <trkpt lat="43.98253" lon="5.55179">
        <ele>788.25</ele>
        <time>2015-10-21T08:37:11Z</time>
      </trkpt>
      <trkpt lat="43.98257" lon="5.55164">
        <ele>789.13</ele>
        <time>2015-10-21T08:37:23Z</time>
      </trkpt>
      <trkpt lat="43.98257" lon="5.5514">
        <ele>790.33</ele>
        <time>2015-10-21T08:37:43Z</time>
      </trkpt>
      <trkpt lat="43.98252" lon="5.55118">
        <ele>791.44</ele>
        <time>2015-10-21T08:38:01Z</time>
      </trkpt>
      <trkpt lat="43.98244" lon="5.55098">
        <ele>793.27</ele>
        <time>2015-10-21T08:38:20Z</time>
      </trkpt>
      <trkpt lat="43.98233" lon="5.5508">
        <ele>795.47</ele>
        <time>2015-10-21T08:38:41Z</time>
      </trkpt>
      <trkpt lat="43.98228" lon="5.55066">
        <ele>796.09</ele>
        <time>2015-10-21T08:39:01Z</time>
      </trkpt>
      <trkpt lat="43.98228" lon="5.55046">
        <ele>798.81</ele>
        <time>2015-10-21T08:39:22Z</time>
      </trkpt>
      <trkpt lat="43.98228" lon="5.55025">
        <ele>800.73</ele>
        <time>2015-10-21T08:39:41Z</time>
      </trkpt>
      <trkpt lat="43.98228" lon="5.54994">
        <ele>801.9</ele>
        <time>2015-10-21T08:40:03Z</time>
      </trkpt>
      <trkpt lat="43.98236" lon="5.54975">
        <ele>803.7</ele>
        <time>2015-10-21T08:40:23Z</time>
      </trkpt>
      <trkpt lat="43.98237" lon="5.54945">
        <ele>805.04</ele>
        <time>2015-10-21T08:40:41Z</time>
      </trkpt>
      <trkpt lat="43.98232" lon="5.54927">
        <ele>806.86</ele>
        <time>2015-10-21T08:40:53Z</time>
      </trkpt>
      <trkpt lat="43.98231" lon="5.54925">
        <ele>806.05</ele>
        <time>2015-10-21T08:40:55Z</time>
      </trkpt>
      <trkpt lat="43.9822" lon="5.54901">
        <ele>806.9</ele>
        <time>2015-10-21T08:41:13Z</time>
      </trkpt>
      <trkpt lat="43.9821" lon="5.54879">
        <ele>807.19</ele>
        <time>2015-10-21T08:41:31Z</time>
      </trkpt>
      <trkpt lat="43.98208" lon="5.54868">
        <ele>805.25</ele>
        <time>2015-10-21T08:41:53Z</time>
      </trkpt>
      <trkpt lat="43.98208" lon="5.54862">
        <ele>804.22</ele>
        <time>2015-10-21T08:42:16Z</time>
      </trkpt>
      <trkpt lat="43.98216" lon="5.54849">
        <ele>802.69</ele>
        <time>2015-10-21T08:42:36Z</time>
      </trkpt>
      <trkpt lat="43.98217" lon="5.54834">
        <ele>801.14</ele>
        <time>2015-10-21T08:42:51Z</time>
      </trkpt>
      <trkpt lat="43.98221" lon="5.5481">
        <ele>798.07</ele>
        <time>2015-10-21T08:43:14Z</time>
      </trkpt>
      <trkpt lat="43.98228" lon="5.54783">
        <ele>794.94</ele>
        <time>2015-10-21T08:43:45Z</time>
      </trkpt>
      <trkpt lat="43.98235" lon="5.54768">
        <ele>793.16</ele>
        <time>2015-10-21T08:44:03Z</time>
      </trkpt>
      <trkpt lat="43.98245" lon="5.5475">
        <ele>790.19</ele>
        <time>2015-10-21T08:44:22Z</time>
      </trkpt>
      <trkpt lat="43.98255" lon="5.54732">
        <ele>788.97</ele>
        <time>2015-10-21T08:44:39Z</time>
      </trkpt>
      <trkpt lat="43.98267" lon="5.54713">
        <ele>786.65</ele>
        <time>2015-10-21T08:44:59Z</time>
      </trkpt>
      <trkpt lat="43.98277" lon="5.54699">
        <ele>784.74</ele>
        <time>2015-10-21T08:45:13Z</time>
      </trkpt>
      <trkpt lat="43.98285" lon="5.54683">
        <ele>781.74</ele>
        <time>2015-10-21T08:45:33Z</time>
      </trkpt>
      <trkpt lat="43.9829" lon="5.54666">
        <ele>778.62</ele>
        <time>2015-10-21T08:45:53Z</time>
      </trkpt>
      <trkpt lat="43.98295" lon="5.54648">
        <ele>775.56</ele>
        <time>2015-10-21T08:46:15Z</time>
      </trkpt>
      <trkpt lat="43.98301" lon="5.54641">
        <ele>773.87</ele>
        <time>2015-10-21T08:46:35Z</time>
      </trkpt>
      <trkpt lat="43.98307" lon="5.54632">
        <ele>770.68</ele>
        <time>2015-10-21T08:46:52Z</time>
      </trkpt>
      <trkpt lat="43.98309" lon="5.54627">
        <ele>770.14</ele>
        <time>2015-10-21T08:47:11Z</time>
      </trkpt>
      <trkpt lat="43.98317" lon="5.54616">
        <ele>766.94</ele>
        <time>2015-10-21T08:47:33Z</time>
      </trkpt>
      <trkpt lat="43.98341" lon="5.54608">
        <ele>764.32</ele>
        <time>2015-10-21T08:47:58Z</time>
      </trkpt>
      <trkpt lat="43.98355" lon="5.54593">
        <ele>761.32</ele>
        <time>2015-10-21T08:48:19Z</time>
      </trkpt>
      <trkpt lat="43.98377" lon="5.54583">
        <ele>759.06</ele>
        <time>2015-10-21T08:48:42Z</time>
      </trkpt>
      <trkpt lat="43.98399" lon="5.54568">
        <ele>757.72</ele>
        <time>2015-10-21T08:49:03Z</time>
      </trkpt>
      <trkpt lat="43.98411" lon="5.54558">
        <ele>756.09</ele>
        <time>2015-10-21T08:49:19Z</time>
      </trkpt>
      <trkpt lat="43.98427" lon="5.54541">
        <ele>754.31</ele>
        <time>2015-10-21T08:49:43Z</time>
      </trkpt>
      <trkpt lat="43.98446" lon="5.54525">
        <ele>752.87</ele>
        <time>2015-10-21T08:50:03Z</time>
      </trkpt>
      <trkpt lat="43.98456" lon="5.54507">
        <ele>750.29</ele>
        <time>2015-10-21T08:50:23Z</time>
      </trkpt>
      <trkpt lat="43.98466" lon="5.54482">
        <ele>748.84</ele>
        <time>2015-10-21T08:50:45Z</time>
      </trkpt>
      <trkpt lat="43.98481" lon="5.54465">
        <ele>747.35</ele>
        <time>2015-10-21T08:51:09Z</time>
      </trkpt>
      <trkpt lat="43.985" lon="5.54452">
        <ele>746.13</ele>
        <time>2015-10-21T08:51:32Z</time>
      </trkpt>
      <trkpt lat="43.98502" lon="5.5445">
        <ele>745.54</ele>
        <time>2015-10-21T08:51:37Z</time>
      </trkpt>
      <trkpt lat="43.98516" lon="5.5443">
        <ele>744.01</ele>
        <time>2015-10-21T08:51:59Z</time>
      </trkpt>
      <trkpt lat="43.98522" lon="5.54411">
        <ele>744.5</ele>
        <time>2015-10-21T08:52:18Z</time>
      </trkpt>
      <trkpt lat="43.98522" lon="5.54405">
        <ele>744.63</ele>
        <time>2015-10-21T08:52:38Z</time>
      </trkpt>
      <trkpt lat="43.98521" lon="5.544">
        <ele>743.73</ele>
        <time>2015-10-21T08:53:01Z</time>
      </trkpt>
      <trkpt lat="43.98521" lon="5.54401">
        <ele>743.24</ele>
        <time>2015-10-21T08:53:37Z</time>
      </trkpt>
      <trkpt lat="43.98522" lon="5.54402">
        <ele>744.46</ele>
        <time>2015-10-21T08:54:07Z</time>
      </trkpt>
      <trkpt lat="43.98523" lon="5.54406">
        <ele>744.87</ele>
        <time>2015-10-21T08:54:16Z</time>
      </trkpt>
      <trkpt lat="43.98521" lon="5.54412">
        <ele>744.31</ele>
        <time>2015-10-21T08:54:38Z</time>
      </trkpt>
      <trkpt lat="43.98521" lon="5.54404">
        <ele>744.13</ele>
        <time>2015-10-21T08:54:51Z</time>
      </trkpt>
      <trkpt lat="43.98521" lon="5.54403">
        <ele>744.66</ele>
        <time>2015-10-21T08:55:19Z</time>
      </trkpt>
      <trkpt lat="43.98526" lon="5.54403">
        <ele>744.02</ele>
        <time>2015-10-21T08:55:45Z</time>
      </trkpt>
      <trkpt lat="43.98527" lon="5.54402">
        <ele>744.47</ele>
        <time>2015-10-21T08:56:16Z</time>
      </trkpt>
      <trkpt lat="43.98523" lon="5.54401">
        <ele>744.74</ele>
        <time>2015-10-21T08:56:46Z</time>
      </trkpt>
      <trkpt lat="43.98523" lon="5.54402">
        <ele>745.03</ele>
        <time>2015-10-21T08:57:11Z</time>
      </trkpt>
      <trkpt lat="43.98531" lon="5.54397">
        <ele>744.67</ele>
        <time>2015-10-21T08:57:40Z</time>
      </trkpt>
      <trkpt lat="43.98539" lon="5.54377">
        <ele>746.6</ele>
        <time>2015-10-21T08:57:59Z</time>
      </trkpt>
      <trkpt lat="43.98541" lon="5.54356">
        <ele>749.45</ele>
        <time>2015-10-21T08:58:15Z</time>
      </trkpt>
      <trkpt lat="43.98536" lon="5.54343">
        <ele>749.96</ele>
        <time>2015-10-21T08:58:36Z</time>
      </trkpt>
      <trkpt lat="43.98528" lon="5.5433">
        <ele>751.88</ele>
        <time>2015-10-21T08:58:54Z</time>
      </trkpt>
      <trkpt lat="43.98523" lon="5.54325">
        <ele>751.72</ele>
        <time>2015-10-21T08:59:00Z</time>
      </trkpt>
      <trkpt lat="43.98514" lon="5.54319">
        <ele>753.03</ele>
        <time>2015-10-21T08:59:19Z</time>
      </trkpt>
      <trkpt lat="43.98501" lon="5.54316">
        <ele>754.29</ele>
        <time>2015-10-21T08:59:37Z</time>
      </trkpt>
      <trkpt lat="43.98483" lon="5.54314">
        <ele>756.8</ele>
        <time>2015-10-21T08:59:56Z</time>
      </trkpt>
      <trkpt lat="43.98468" lon="5.54313">
        <ele>758.1</ele>
        <time>2015-10-21T09:00:12Z</time>
      </trkpt>
      <trkpt lat="43.98466" lon="5.54312">
        <ele>757.32</ele>
        <time>2015-10-21T09:00:14Z</time>
      </trkpt>
      <trkpt lat="43.98459" lon="5.54311">
        <ele>757.65</ele>
        <time>2015-10-21T09:00:20Z</time>
      </trkpt>
      <trkpt lat="43.98441" lon="5.54304">
        <ele>758.77</ele>
        <time>2015-10-21T09:00:36Z</time>
      </trkpt>
      <trkpt lat="43.98428" lon="5.54299">
        <ele>758.93</ele>
        <time>2015-10-21T09:00:48Z</time>
      </trkpt>
      <trkpt lat="43.98414" lon="5.54291">
        <ele>760.1</ele>
        <time>2015-10-21T09:01:02Z</time>
      </trkpt>
      <trkpt lat="43.98405" lon="5.54283">
        <ele>760.58</ele>
        <time>2015-10-21T09:01:13Z</time>
      </trkpt>
      <trkpt lat="43.98399" lon="5.54276">
        <ele>760.77</ele>
        <time>2015-10-21T09:01:19Z</time>
      </trkpt>
      <trkpt lat="43.98398" lon="5.54273">
        <ele>762.18</ele>
        <time>2015-10-21T09:01:22Z</time>
      </trkpt>
      <trkpt lat="43.98392" lon="5.54263">
        <ele>761.86</ele>
        <time>2015-10-21T09:01:30Z</time>
      </trkpt>
      <trkpt lat="43.98384" lon="5.54247">
        <ele>763.38</ele>
        <time>2015-10-21T09:01:46Z</time>
      </trkpt>
      <trkpt lat="43.98378" lon="5.54231">
        <ele>763.7</ele>
        <time>2015-10-21T09:01:58Z</time>
      </trkpt>
      <trkpt lat="43.98375" lon="5.54214">
        <ele>764.75</ele>
        <time>2015-10-21T09:02:18Z</time>
      </trkpt>
      <trkpt lat="43.98368" lon="5.5418">
        <ele>766.22</ele>
        <time>2015-10-21T09:02:40Z</time>
      </trkpt>
      <trkpt lat="43.98361" lon="5.54156">
        <ele>769.04</ele>
        <time>2015-10-21T09:03:00Z</time>
      </trkpt>
      <trkpt lat="43.98356" lon="5.54133">
        <ele>770.44</ele>
        <time>2015-10-21T09:03:20Z</time>
      </trkpt>
      <trkpt lat="43.98349" lon="5.54107">
        <ele>772.23</ele>
        <time>2015-10-21T09:03:41Z</time>
      </trkpt>
      <trkpt lat="43.98338" lon="5.54076">
        <ele>772.62</ele>
        <time>2015-10-21T09:04:04Z</time>
      </trkpt>
      <trkpt lat="43.98336" lon="5.54071">
        <ele>773.3</ele>
        <time>2015-10-21T09:04:08Z</time>
      </trkpt>
      <trkpt lat="43.98338" lon="5.54044">
        <ele>773.7</ele>
        <time>2015-10-21T09:04:31Z</time>
      </trkpt>
      <trkpt lat="43.9833" lon="5.54015">
        <ele>775.29</ele>
        <time>2015-10-21T09:04:50Z</time>
      </trkpt>
      <trkpt lat="43.98314" lon="5.53989">
        <ele>776.54</ele>
        <time>2015-10-21T09:05:06Z</time>
      </trkpt>
      <trkpt lat="43.98301" lon="5.53971">
        <ele>778.31</ele>
        <time>2015-10-21T09:05:20Z</time>
      </trkpt>
      <trkpt lat="43.98286" lon="5.53954">
        <ele>779.43</ele>
        <time>2015-10-21T09:05:40Z</time>
      </trkpt>
      <trkpt lat="43.98274" lon="5.53944">
        <ele>780.27</ele>
        <time>2015-10-21T09:05:58Z</time>
      </trkpt>
      <trkpt lat="43.98261" lon="5.53927">
        <ele>781.27</ele>
        <time>2015-10-21T09:06:17Z</time>
      </trkpt>
      <trkpt lat="43.98249" lon="5.53904">
        <ele>782.37</ele>
        <time>2015-10-21T09:06:37Z</time>
      </trkpt>
      <trkpt lat="43.98243" lon="5.53889">
        <ele>782.1</ele>
        <time>2015-10-21T09:06:56Z</time>
      </trkpt>
      <trkpt lat="43.98239" lon="5.5387">
        <ele>782.28</ele>
        <time>2015-10-21T09:07:15Z</time>
      </trkpt>
      <trkpt lat="43.98237" lon="5.53849">
        <ele>783.87</ele>
        <time>2015-10-21T09:07:33Z</time>
      </trkpt>
      <trkpt lat="43.98235" lon="5.53819">
        <ele>784.83</ele>
        <time>2015-10-21T09:07:53Z</time>
      </trkpt>
      <trkpt lat="43.98237" lon="5.53791">
        <ele>784.83</ele>
        <time>2015-10-21T09:08:12Z</time>
      </trkpt>
      <trkpt lat="43.98248" lon="5.53767">
        <ele>786.24</ele>
        <time>2015-10-21T09:08:30Z</time>
      </trkpt>
      <trkpt lat="43.98253" lon="5.53738">
        <ele>787.2</ele>
        <time>2015-10-21T09:08:52Z</time>
      </trkpt>
      <trkpt lat="43.98257" lon="5.53706">
        <ele>789.43</ele>
        <time>2015-10-21T09:09:15Z</time>
      </trkpt>
      <trkpt lat="43.98276" lon="5.53698">
        <ele>790.14</ele>
        <time>2015-10-21T09:09:36Z</time>
      </trkpt>
      <trkpt lat="43.98295" lon="5.53684">
        <ele>793.35</ele>
        <time>2015-10-21T09:09:52Z</time>
      </trkpt>
      <trkpt lat="43.98301" lon="5.53678">
        <ele>792.65</ele>
        <time>2015-10-21T09:09:57Z</time>
      </trkpt>
      <trkpt lat="43.98326" lon="5.5366">
        <ele>793.51</ele>
        <time>2015-10-21T09:10:20Z</time>
      </trkpt>
      <trkpt lat="43.98341" lon="5.53646">
        <ele>794.14</ele>
        <time>2015-10-21T09:10:39Z</time>
      </trkpt>
      <trkpt lat="43.98353" lon="5.53617">
        <ele>796.06</ele>
        <time>2015-10-21T09:11:01Z</time>
      </trkpt>
      <trkpt lat="43.98366" lon="5.53601">
        <ele>797.47</ele>
        <time>2015-10-21T09:11:24Z</time>
      </trkpt>
      <trkpt lat="43.98382" lon="5.53591">
        <ele>798.69</ele>
        <time>2015-10-21T09:11:48Z</time>
      </trkpt>
      <trkpt lat="43.98399" lon="5.5359">
        <ele>800.66</ele>
        <time>2015-10-21T09:12:04Z</time>
      </trkpt>
      <trkpt lat="43.98423" lon="5.53593">
        <ele>800.9</ele>
        <time>2015-10-21T09:12:27Z</time>
      </trkpt>
      <trkpt lat="43.98444" lon="5.53596">
        <ele>802.49</ele>
        <time>2015-10-21T09:12:46Z</time>
      </trkpt>
      <trkpt lat="43.98471" lon="5.53591">
        <ele>803.54</ele>
        <time>2015-10-21T09:13:10Z</time>
      </trkpt>
      <trkpt lat="43.98497" lon="5.53574">
        <ele>805.39</ele>
        <time>2015-10-21T09:13:33Z</time>
      </trkpt>
      <trkpt lat="43.98515" lon="5.53559">
        <ele>805.88</ele>
        <time>2015-10-21T09:13:53Z</time>
      </trkpt>
      <trkpt lat="43.98537" lon="5.53543">
        <ele>807.67</ele>
        <time>2015-10-21T09:14:16Z</time>
      </trkpt>
      <trkpt lat="43.98558" lon="5.53529">
        <ele>809.31</ele>
        <time>2015-10-21T09:14:37Z</time>
      </trkpt>
      <trkpt lat="43.98579" lon="5.53513">
        <ele>810.5</ele>
        <time>2015-10-21T09:15:00Z</time>
      </trkpt>
      <trkpt lat="43.98581" lon="5.53508">
        <ele>811.43</ele>
        <time>2015-10-21T09:15:04Z</time>
      </trkpt>
      <trkpt lat="43.98594" lon="5.53488">
        <ele>813.8</ele>
        <time>2015-10-21T09:15:26Z</time>
      </trkpt>
      <trkpt lat="43.98609" lon="5.53468">
        <ele>816.58</ele>
        <time>2015-10-21T09:15:47Z</time>
      </trkpt>
      <trkpt lat="43.98619" lon="5.53454">
        <ele>819.92</ele>
        <time>2015-10-21T09:16:00Z</time>
      </trkpt>
      <trkpt lat="43.98632" lon="5.53433">
        <ele>819.41</ele>
        <time>2015-10-21T09:16:21Z</time>
      </trkpt>
      <trkpt lat="43.98637" lon="5.53426">
        <ele>821.09</ele>
        <time>2015-10-21T09:16:29Z</time>
      </trkpt>
      <trkpt lat="43.9865" lon="5.53409">
        <ele>822.24</ele>
        <time>2015-10-21T09:16:51Z</time>
      </trkpt>
      <trkpt lat="43.98666" lon="5.53392">
        <ele>823.53</ele>
        <time>2015-10-21T09:17:12Z</time>
      </trkpt>
      <trkpt lat="43.98679" lon="5.53375">
        <ele>822.5</ele>
        <time>2015-10-21T09:17:34Z</time>
      </trkpt>
      <trkpt lat="43.9868" lon="5.53374">
        <ele>828</ele>
        <time>2015-10-21T09:17:35Z</time>
      </trkpt>
      <trkpt lat="43.9868" lon="5.53374">
        <ele>824.85</ele>
        <time>2015-10-21T09:17:36Z</time>
      </trkpt>
      <trkpt lat="43.98689" lon="5.53362">
        <ele>825.77</ele>
        <time>2015-10-21T09:17:56Z</time>
      </trkpt>
      <trkpt lat="43.98705" lon="5.53346">
        <ele>827.02</ele>
        <time>2015-10-21T09:18:18Z</time>
      </trkpt>
      <trkpt lat="43.98719" lon="5.53331">
        <ele>828.51</ele>
        <time>2015-10-21T09:18:38Z</time>
      </trkpt>
      <trkpt lat="43.9873" lon="5.53319">
        <ele>829.06</ele>
        <time>2015-10-21T09:18:50Z</time>
      </trkpt>
      <trkpt lat="43.9874" lon="5.53304">
        <ele>829.83</ele>
        <time>2015-10-21T09:19:05Z</time>
      </trkpt>
      <trkpt lat="43.98755" lon="5.53284">
        <ele>830.83</ele>
        <time>2015-10-21T09:19:24Z</time>
      </trkpt>
      <trkpt lat="43.98769" lon="5.53269">
        <ele>832.87</ele>
        <time>2015-10-21T09:19:42Z</time>
      </trkpt>
      <trkpt lat="43.98783" lon="5.53256">
        <ele>834.39</ele>
        <time>2015-10-21T09:19:58Z</time>
      </trkpt>
      <trkpt lat="43.98784" lon="5.53255">
        <ele>835.58</ele>
        <time>2015-10-21T09:20:00Z</time>
      </trkpt>
      <trkpt lat="43.98786" lon="5.53253">
        <ele>834.42</ele>
        <time>2015-10-21T09:20:02Z</time>
      </trkpt>
      <trkpt lat="43.98791" lon="5.53242">
        <ele>834.99</ele>
        <time>2015-10-21T09:20:21Z</time>
      </trkpt>
      <trkpt lat="43.98798" lon="5.53221">
        <ele>836.66</ele>
        <time>2015-10-21T09:20:40Z</time>
      </trkpt>
      <trkpt lat="43.988" lon="5.53214">
        <ele>837.16</ele>
        <time>2015-10-21T09:20:46Z</time>
      </trkpt>
      <trkpt lat="43.98803" lon="5.53195">
        <ele>837.64</ele>
        <time>2015-10-21T09:21:01Z</time>
      </trkpt>
      <trkpt lat="43.98801" lon="5.53175">
        <ele>838.18</ele>
        <time>2015-10-21T09:21:16Z</time>
      </trkpt>
      <trkpt lat="43.98802" lon="5.53157">
        <ele>838.61</ele>
        <time>2015-10-21T09:21:30Z</time>
      </trkpt>
      <trkpt lat="43.98803" lon="5.53134">
        <ele>839.36</ele>
        <time>2015-10-21T09:21:45Z</time>
      </trkpt>
      <trkpt lat="43.98806" lon="5.53111">
        <ele>839.75</ele>
        <time>2015-10-21T09:22:01Z</time>
      </trkpt>
      <trkpt lat="43.9881" lon="5.53083">
        <ele>839.91</ele>
        <time>2015-10-21T09:22:20Z</time>
      </trkpt>
      <trkpt lat="43.98813" lon="5.53065">
        <ele>841.04</ele>
        <time>2015-10-21T09:22:35Z</time>
      </trkpt>
      <trkpt lat="43.98816" lon="5.53049">
        <ele>841.4</ele>
        <time>2015-10-21T09:22:49Z</time>
      </trkpt>
      <trkpt lat="43.98817" lon="5.53038">
        <ele>841.93</ele>
        <time>2015-10-21T09:23:03Z</time>
      </trkpt>
      <trkpt lat="43.98817" lon="5.53034">
        <ele>841.67</ele>
        <time>2015-10-21T09:23:12Z</time>
      </trkpt>
      <trkpt lat="43.98818" lon="5.53019">
        <ele>842.4</ele>
        <time>2015-10-21T09:23:26Z</time>
      </trkpt>
      <trkpt lat="43.98819" lon="5.5301">
        <ele>842.87</ele>
        <time>2015-10-21T09:23:44Z</time>
      </trkpt>
      <trkpt lat="43.98819" lon="5.53003">
        <ele>842.92</ele>
        <time>2015-10-21T09:24:05Z</time>
      </trkpt>
      <trkpt lat="43.9882" lon="5.52993">
        <ele>844.36</ele>
        <time>2015-10-21T09:24:31Z</time>
      </trkpt>
      <trkpt lat="43.98823" lon="5.52978">
        <ele>844.88</ele>
        <time>2015-10-21T09:24:57Z</time>
      </trkpt>
      <trkpt lat="43.98824" lon="5.52958">
        <ele>845.92</ele>
        <time>2015-10-21T09:25:17Z</time>
      </trkpt>
      <trkpt lat="43.98831" lon="5.52938">
        <ele>847.5</ele>
        <time>2015-10-21T09:25:37Z</time>
      </trkpt>
      <trkpt lat="43.98837" lon="5.52925">
        <ele>849.43</ele>
        <time>2015-10-21T09:25:56Z</time>
      </trkpt>
      <trkpt lat="43.98844" lon="5.52913">
        <ele>849.87</ele>
        <time>2015-10-21T09:26:14Z</time>
      </trkpt>
      <trkpt lat="43.98841" lon="5.52894">
        <ele>850.34</ele>
        <time>2015-10-21T09:26:32Z</time>
      </trkpt>
      <trkpt lat="43.98831" lon="5.52877">
        <ele>850.33</ele>
        <time>2015-10-21T09:26:53Z</time>
      </trkpt>
      <trkpt lat="43.98826" lon="5.52852">
        <ele>852.38</ele>
        <time>2015-10-21T09:27:16Z</time>
      </trkpt>
      <trkpt lat="43.98825" lon="5.52831">
        <ele>853.05</ele>
        <time>2015-10-21T09:27:36Z</time>
      </trkpt>
      <trkpt lat="43.98828" lon="5.52812">
        <ele>855.35</ele>
        <time>2015-10-21T09:27:57Z</time>
      </trkpt>
      <trkpt lat="43.98828" lon="5.5279">
        <ele>858.38</ele>
        <time>2015-10-21T09:28:22Z</time>
      </trkpt>
      <trkpt lat="43.98824" lon="5.52769">
        <ele>859.8</ele>
        <time>2015-10-21T09:28:44Z</time>
      </trkpt>
      <trkpt lat="43.98822" lon="5.52752">
        <ele>862.83</ele>
        <time>2015-10-21T09:29:01Z</time>
      </trkpt>
      <trkpt lat="43.98821" lon="5.52732">
        <ele>863.74</ele>
        <time>2015-10-21T09:29:25Z</time>
      </trkpt>
      <trkpt lat="43.98819" lon="5.52708">
        <ele>866.28</ele>
        <time>2015-10-21T09:29:50Z</time>
      </trkpt>
      <trkpt lat="43.98815" lon="5.52695">
        <ele>868.67</ele>
        <time>2015-10-21T09:30:11Z</time>
      </trkpt>
      <trkpt lat="43.98811" lon="5.52672">
        <ele>871.3</ele>
        <time>2015-10-21T09:30:32Z</time>
      </trkpt>
      <trkpt lat="43.98808" lon="5.52654">
        <ele>873.89</ele>
        <time>2015-10-21T09:30:53Z</time>
      </trkpt>
      <trkpt lat="43.98808" lon="5.52636">
        <ele>875.97</ele>
        <time>2015-10-21T09:31:15Z</time>
      </trkpt>
      <trkpt lat="43.98801" lon="5.52616">
        <ele>878.24</ele>
        <time>2015-10-21T09:31:35Z</time>
      </trkpt>
      <trkpt lat="43.98791" lon="5.52595">
        <ele>879.83</ele>
        <time>2015-10-21T09:31:56Z</time>
      </trkpt>
      <trkpt lat="43.98777" lon="5.52577">
        <ele>881.74</ele>
        <time>2015-10-21T09:32:17Z</time>
      </trkpt>
      <trkpt lat="43.98764" lon="5.52564">
        <ele>881.95</ele>
        <time>2015-10-21T09:32:40Z</time>
      </trkpt>
      <trkpt lat="43.98754" lon="5.52558">
        <ele>884.24</ele>
        <time>2015-10-21T09:32:57Z</time>
      </trkpt>
      <trkpt lat="43.9874" lon="5.52551">
        <ele>885.2</ele>
        <time>2015-10-21T09:33:15Z</time>
      </trkpt>
      <trkpt lat="43.98724" lon="5.52542">
        <ele>887.74</ele>
        <time>2015-10-21T09:33:35Z</time>
      </trkpt>
      <trkpt lat="43.98713" lon="5.52533">
        <ele>888.72</ele>
        <time>2015-10-21T09:33:55Z</time>
      </trkpt>
      <trkpt lat="43.98701" lon="5.52522">
        <ele>892.31</ele>
        <time>2015-10-21T09:34:12Z</time>
      </trkpt>
      <trkpt lat="43.98699" lon="5.5252">
        <ele>890.96</ele>
        <time>2015-10-21T09:34:15Z</time>
      </trkpt>
      <trkpt lat="43.98685" lon="5.52509">
        <ele>893.11</ele>
        <time>2015-10-21T09:34:35Z</time>
      </trkpt>
      <trkpt lat="43.98671" lon="5.52498">
        <ele>895.15</ele>
        <time>2015-10-21T09:34:55Z</time>
      </trkpt>
      <trkpt lat="43.98657" lon="5.52486">
        <ele>897.18</ele>
        <time>2015-10-21T09:35:16Z</time>
      </trkpt>
      <trkpt lat="43.98639" lon="5.52474">
        <ele>900.17</ele>
        <time>2015-10-21T09:35:40Z</time>
      </trkpt>
      <trkpt lat="43.98635" lon="5.52472">
        <ele>900.1</ele>
        <time>2015-10-21T09:36:02Z</time>
      </trkpt>
      <trkpt lat="43.98634" lon="5.52473">
        <ele>900.64</ele>
        <time>2015-10-21T09:36:35Z</time>
      </trkpt>
      <trkpt lat="43.98633" lon="5.52476">
        <ele>900.99</ele>
        <time>2015-10-21T09:37:10Z</time>
      </trkpt>
      <trkpt lat="43.98628" lon="5.52471">
        <ele>902.21</ele>
        <time>2015-10-21T09:37:36Z</time>
      </trkpt>
      <trkpt lat="43.98625" lon="5.52465">
        <ele>902.61</ele>
        <time>2015-10-21T09:37:57Z</time>
      </trkpt>
      <trkpt lat="43.98622" lon="5.5246">
        <ele>902.4</ele>
        <time>2015-10-21T09:38:21Z</time>
      </trkpt>
      <trkpt lat="43.98621" lon="5.52458">
        <ele>903.53</ele>
        <time>2015-10-21T09:38:46Z</time>
      </trkpt>
      <trkpt lat="43.98622" lon="5.52458">
        <ele>903.3</ele>
        <time>2015-10-21T09:39:07Z</time>
      </trkpt>
      <trkpt lat="43.98623" lon="5.5246">
        <ele>903.23</ele>
        <time>2015-10-21T09:39:25Z</time>
      </trkpt>
      <trkpt lat="43.98622" lon="5.52462">
        <ele>903</ele>
        <time>2015-10-21T09:39:44Z</time>
      </trkpt>
      <trkpt lat="43.98611" lon="5.52452">
        <ele>904.3</ele>
        <time>2015-10-21T09:40:03Z</time>
      </trkpt>
      <trkpt lat="43.98602" lon="5.52443">
        <ele>906.48</ele>
        <time>2015-10-21T09:40:16Z</time>
      </trkpt>
      <trkpt lat="43.9859" lon="5.52433">
        <ele>908.33</ele>
        <time>2015-10-21T09:40:32Z</time>
      </trkpt>
      <trkpt lat="43.98576" lon="5.52428">
        <ele>909.53</ele>
        <time>2015-10-21T09:40:50Z</time>
      </trkpt>
      <trkpt lat="43.98559" lon="5.52419">
        <ele>911.61</ele>
        <time>2015-10-21T09:41:10Z</time>
      </trkpt>
      <trkpt lat="43.98545" lon="5.52408">
        <ele>912.28</ele>
        <time>2015-10-21T09:41:24Z</time>
      </trkpt>
      <trkpt lat="43.98532" lon="5.52398">
        <ele>912.96</ele>
        <time>2015-10-21T09:41:37Z</time>
      </trkpt>
      <trkpt lat="43.98517" lon="5.52387">
        <ele>914.78</ele>
        <time>2015-10-21T09:41:55Z</time>
      </trkpt>
      <trkpt lat="43.98503" lon="5.52372">
        <ele>914.62</ele>
        <time>2015-10-21T09:42:12Z</time>
      </trkpt>
      <trkpt lat="43.98487" lon="5.52356">
        <ele>915.32</ele>
        <time>2015-10-21T09:42:29Z</time>
      </trkpt>
      <trkpt lat="43.9847" lon="5.52333">
        <ele>916.19</ele>
        <time>2015-10-21T09:42:50Z</time>
      </trkpt>
      <trkpt lat="43.98456" lon="5.52313">
        <ele>916.1</ele>
        <time>2015-10-21T09:43:09Z</time>
      </trkpt>
      <trkpt lat="43.98443" lon="5.52293">
        <ele>918.45</ele>
        <time>2015-10-21T09:43:29Z</time>
      </trkpt>
      <trkpt lat="43.98426" lon="5.52278">
        <ele>920.3</ele>
        <time>2015-10-21T09:43:50Z</time>
      </trkpt>
      <trkpt lat="43.98418" lon="5.52259">
        <ele>922.63</ele>
        <time>2015-10-21T09:44:11Z</time>
      </trkpt>
      <trkpt lat="43.9841" lon="5.52242">
        <ele>924.61</ele>
        <time>2015-10-21T09:44:31Z</time>
      </trkpt>
      <trkpt lat="43.98401" lon="5.52227">
        <ele>925.55</ele>
        <time>2015-10-21T09:44:51Z</time>
      </trkpt>
      <trkpt lat="43.98393" lon="5.52196">
        <ele>927.03</ele>
        <time>2015-10-21T09:45:12Z</time>
      </trkpt>
      <trkpt lat="43.98396" lon="5.52181">
        <ele>928.82</ele>
        <time>2015-10-21T09:45:29Z</time>
      </trkpt>
      <trkpt lat="43.98402" lon="5.52162">
        <ele>932</ele>
        <time>2015-10-21T09:45:48Z</time>
      </trkpt>
      <trkpt lat="43.98409" lon="5.5214">
        <ele>933.2</ele>
        <time>2015-10-21T09:46:08Z</time>
      </trkpt>
      <trkpt lat="43.98414" lon="5.52124">
        <ele>935.22</ele>
        <time>2015-10-21T09:46:25Z</time>
      </trkpt>
      <trkpt lat="43.98419" lon="5.52105">
        <ele>936.49</ele>
        <time>2015-10-21T09:46:42Z</time>
      </trkpt>
      <trkpt lat="43.98419" lon="5.521">
        <ele>937.11</ele>
        <time>2015-10-21T09:47:04Z</time>
      </trkpt>
      <trkpt lat="43.98423" lon="5.52086">
        <ele>937.82</ele>
        <time>2015-10-21T09:47:23Z</time>
      </trkpt>
      <trkpt lat="43.98431" lon="5.52066">
        <ele>939.91</ele>
        <time>2015-10-21T09:47:45Z</time>
      </trkpt>
      <trkpt lat="43.98438" lon="5.52051">
        <ele>941.2</ele>
        <time>2015-10-21T09:48:01Z</time>
      </trkpt>
      <trkpt lat="43.98445" lon="5.52035">
        <ele>943.2</ele>
        <time>2015-10-21T09:48:17Z</time>
      </trkpt>
      <trkpt lat="43.98451" lon="5.52025">
        <ele>944.61</ele>
        <time>2015-10-21T09:48:27Z</time>
      </trkpt>
      <trkpt lat="43.98461" lon="5.52009">
        <ele>944.12</ele>
        <time>2015-10-21T09:48:44Z</time>
      </trkpt>
      <trkpt lat="43.98471" lon="5.51999">
        <ele>944.69</ele>
        <time>2015-10-21T09:48:59Z</time>
      </trkpt>
      <trkpt lat="43.98481" lon="5.51987">
        <ele>945.75</ele>
        <time>2015-10-21T09:49:15Z</time>
      </trkpt>
      <trkpt lat="43.98491" lon="5.51964">
        <ele>947.85</ele>
        <time>2015-10-21T09:49:40Z</time>
      </trkpt>
      <trkpt lat="43.98494" lon="5.51945">
        <ele>949.03</ele>
        <time>2015-10-21T09:49:59Z</time>
      </trkpt>
      <trkpt lat="43.98504" lon="5.51924">
        <ele>950.78</ele>
        <time>2015-10-21T09:50:19Z</time>
      </trkpt>
      <trkpt lat="43.98514" lon="5.51902">
        <ele>951.25</ele>
        <time>2015-10-21T09:50:41Z</time>
      </trkpt>
      <trkpt lat="43.98524" lon="5.51883">
        <ele>952.27</ele>
        <time>2015-10-21T09:51:02Z</time>
      </trkpt>
      <trkpt lat="43.98538" lon="5.51866">
        <ele>952.91</ele>
        <time>2015-10-21T09:51:26Z</time>
      </trkpt>
      <trkpt lat="43.9855" lon="5.51845">
        <ele>953.8</ele>
        <time>2015-10-21T09:51:48Z</time>
      </trkpt>
      <trkpt lat="43.98551" lon="5.51839">
        <ele>955.33</ele>
        <time>2015-10-21T09:51:53Z</time>
      </trkpt>
      <trkpt lat="43.98555" lon="5.51819">
        <ele>955.51</ele>
        <time>2015-10-21T09:52:12Z</time>
      </trkpt>
      <trkpt lat="43.98562" lon="5.51798">
        <ele>957.42</ele>
        <time>2015-10-21T09:52:35Z</time>
      </trkpt>
      <trkpt lat="43.98567" lon="5.51782">
        <ele>958.36</ele>
        <time>2015-10-21T09:52:56Z</time>
      </trkpt>
      <trkpt lat="43.98571" lon="5.51769">
        <ele>958.74</ele>
        <time>2015-10-21T09:53:20Z</time>
      </trkpt>
      <trkpt lat="43.98574" lon="5.51758">
        <ele>960.25</ele>
        <time>2015-10-21T09:53:42Z</time>
      </trkpt>
      <trkpt lat="43.98578" lon="5.51753">
        <ele>960.24</ele>
        <time>2015-10-21T09:54:05Z</time>
      </trkpt>
      <trkpt lat="43.98583" lon="5.51745">
        <ele>960.33</ele>
        <time>2015-10-21T09:54:24Z</time>
      </trkpt>
      <trkpt lat="43.98584" lon="5.51742">
        <ele>960.26</ele>
        <time>2015-10-21T09:54:50Z</time>
      </trkpt>
      <trkpt lat="43.98585" lon="5.51727">
        <ele>961.9</ele>
        <time>2015-10-21T09:55:10Z</time>
      </trkpt>
      <trkpt lat="43.98594" lon="5.51715">
        <ele>962.14</ele>
        <time>2015-10-21T09:55:27Z</time>
      </trkpt>
      <trkpt lat="43.98598" lon="5.51697">
        <ele>964.05</ele>
        <time>2015-10-21T09:55:46Z</time>
      </trkpt>
      <trkpt lat="43.98607" lon="5.51679">
        <ele>964.93</ele>
        <time>2015-10-21T09:56:04Z</time>
      </trkpt>
      <trkpt lat="43.98614" lon="5.5166">
        <ele>967.16</ele>
        <time>2015-10-21T09:56:21Z</time>
      </trkpt>
      <trkpt lat="43.9862" lon="5.51639">
        <ele>968.48</ele>
        <time>2015-10-21T09:56:40Z</time>
      </trkpt>
      <trkpt lat="43.98627" lon="5.51619">
        <ele>969.25</ele>
        <time>2015-10-21T09:56:57Z</time>
      </trkpt>
      <trkpt lat="43.98631" lon="5.51607">
        <ele>970.17</ele>
        <time>2015-10-21T09:57:07Z</time>
      </trkpt>
      <trkpt lat="43.98634" lon="5.5159">
        <ele>972.54</ele>
        <time>2015-10-21T09:57:23Z</time>
      </trkpt>
      <trkpt lat="43.98639" lon="5.5158">
        <ele>973</ele>
        <time>2015-10-21T09:57:38Z</time>
      </trkpt>
      <trkpt lat="43.98636" lon="5.51572">
        <ele>973.57</ele>
        <time>2015-10-21T09:57:54Z</time>
      </trkpt>
      <trkpt lat="43.98635" lon="5.51554">
        <ele>976.37</ele>
        <time>2015-10-21T09:58:14Z</time>
      </trkpt>
      <trkpt lat="43.98634" lon="5.51538">
        <ele>977.7</ele>
        <time>2015-10-21T09:58:31Z</time>
      </trkpt>
      <trkpt lat="43.98627" lon="5.51523">
        <ele>980.19</ele>
        <time>2015-10-21T09:58:51Z</time>
      </trkpt>
      <trkpt lat="43.98634" lon="5.51507">
        <ele>980.1</ele>
        <time>2015-10-21T09:59:06Z</time>
      </trkpt>
      <trkpt lat="43.98642" lon="5.51489">
        <ele>981.77</ele>
        <time>2015-10-21T09:59:23Z</time>
      </trkpt>
      <trkpt lat="43.98649" lon="5.51478">
        <ele>982.1</ele>
        <time>2015-10-21T09:59:41Z</time>
      </trkpt>
      <trkpt lat="43.98654" lon="5.51468">
        <ele>982.71</ele>
        <time>2015-10-21T10:00:00Z</time>
      </trkpt>
      <trkpt lat="43.98656" lon="5.51462">
        <ele>982.8</ele>
        <time>2015-10-21T10:00:22Z</time>
      </trkpt>
      <trkpt lat="43.98662" lon="5.51457">
        <ele>983.15</ele>
        <time>2015-10-21T10:00:46Z</time>
      </trkpt>
      <trkpt lat="43.98668" lon="5.51447">
        <ele>983.42</ele>
        <time>2015-10-21T10:01:06Z</time>
      </trkpt>
      <trkpt lat="43.98673" lon="5.51441">
        <ele>984.53</ele>
        <time>2015-10-21T10:01:28Z</time>
      </trkpt>
      <trkpt lat="43.9868" lon="5.51432">
        <ele>985.1</ele>
        <time>2015-10-21T10:01:47Z</time>
      </trkpt>
      <trkpt lat="43.98691" lon="5.51412">
        <ele>985.89</ele>
        <time>2015-10-21T10:02:09Z</time>
      </trkpt>
      <trkpt lat="43.98699" lon="5.514">
        <ele>984.15</ele>
        <time>2015-10-21T10:02:24Z</time>
      </trkpt>
      <trkpt lat="43.98709" lon="5.51384">
        <ele>983.86</ele>
        <time>2015-10-21T10:02:43Z</time>
      </trkpt>
      <trkpt lat="43.98717" lon="5.51375">
        <ele>983.11</ele>
        <time>2015-10-21T10:03:01Z</time>
      </trkpt>
      <trkpt lat="43.98731" lon="5.51357">
        <ele>983.12</ele>
        <time>2015-10-21T10:03:22Z</time>
      </trkpt>
      <trkpt lat="43.9874" lon="5.5134">
        <ele>983.08</ele>
        <time>2015-10-21T10:03:38Z</time>
      </trkpt>
      <trkpt lat="43.98749" lon="5.51319">
        <ele>983.05</ele>
        <time>2015-10-21T10:03:55Z</time>
      </trkpt>
      <trkpt lat="43.9875" lon="5.51318">
        <ele>983.09</ele>
        <time>2015-10-21T10:03:56Z</time>
      </trkpt>
      <trkpt lat="43.98758" lon="5.51297">
        <ele>984.02</ele>
        <time>2015-10-21T10:04:13Z</time>
      </trkpt>
      <trkpt lat="43.98766" lon="5.51283">
        <ele>984.06</ele>
        <time>2015-10-21T10:04:34Z</time>
      </trkpt>
      <trkpt lat="43.98775" lon="5.51266">
        <ele>984.17</ele>
        <time>2015-10-21T10:04:56Z</time>
      </trkpt>
      <trkpt lat="43.98788" lon="5.51247">
        <ele>984.55</ele>
        <time>2015-10-21T10:05:18Z</time>
      </trkpt>
      <trkpt lat="43.98799" lon="5.51227">
        <ele>984.19</ele>
        <time>2015-10-21T10:05:40Z</time>
      </trkpt>
      <trkpt lat="43.9881" lon="5.5121">
        <ele>984.96</ele>
        <time>2015-10-21T10:06:00Z</time>
      </trkpt>
      <trkpt lat="43.98819" lon="5.51193">
        <ele>984.85</ele>
        <time>2015-10-21T10:06:19Z</time>
      </trkpt>
      <trkpt lat="43.98833" lon="5.51175">
        <ele>985.23</ele>
        <time>2015-10-21T10:06:41Z</time>
      </trkpt>
      <trkpt lat="43.98841" lon="5.51159">
        <ele>986.67</ele>
        <time>2015-10-21T10:07:04Z</time>
      </trkpt>
      <trkpt lat="43.9885" lon="5.51137">
        <ele>986.7</ele>
        <time>2015-10-21T10:07:25Z</time>
      </trkpt>
      <trkpt lat="43.98857" lon="5.51118">
        <ele>988.02</ele>
        <time>2015-10-21T10:07:48Z</time>
      </trkpt>
      <trkpt lat="43.98867" lon="5.511">
        <ele>989.51</ele>
        <time>2015-10-21T10:08:08Z</time>
      </trkpt>
      <trkpt lat="43.98875" lon="5.51082">
        <ele>989.06</ele>
        <time>2015-10-21T10:08:26Z</time>
      </trkpt>
      <trkpt lat="43.98879" lon="5.51043">
        <ele>990.16</ele>
        <time>2015-10-21T10:08:44Z</time>
      </trkpt>
      <trkpt lat="43.98884" lon="5.51019">
        <ele>990.22</ele>
        <time>2015-10-21T10:09:00Z</time>
      </trkpt>
      <trkpt lat="43.98888" lon="5.50997">
        <ele>990.7</ele>
        <time>2015-10-21T10:09:18Z</time>
      </trkpt>
      <trkpt lat="43.9889" lon="5.50994">
        <ele>990.78</ele>
        <time>2015-10-21T10:09:20Z</time>
      </trkpt>
      <trkpt lat="43.98895" lon="5.50971">
        <ele>991.04</ele>
        <time>2015-10-21T10:09:37Z</time>
      </trkpt>
      <trkpt lat="43.98899" lon="5.50957">
        <ele>991.49</ele>
        <time>2015-10-21T10:09:51Z</time>
      </trkpt>
      <trkpt lat="43.98905" lon="5.50937">
        <ele>991.46</ele>
        <time>2015-10-21T10:10:08Z</time>
      </trkpt>
      <trkpt lat="43.98908" lon="5.50931">
        <ele>991.15</ele>
        <time>2015-10-21T10:10:30Z</time>
      </trkpt>
      <trkpt lat="43.98912" lon="5.50919">
        <ele>990.64</ele>
        <time>2015-10-21T10:10:51Z</time>
      </trkpt>
      <trkpt lat="43.98913" lon="5.50917">
        <ele>991.16</ele>
        <time>2015-10-21T10:10:53Z</time>
      </trkpt>
      <trkpt lat="43.98918" lon="5.50899">
        <ele>990.84</ele>
        <time>2015-10-21T10:11:14Z</time>
      </trkpt>
      <trkpt lat="43.9891" lon="5.509">
        <ele>992.82</ele>
        <time>2015-10-21T10:11:27Z</time>
      </trkpt>
      <trkpt lat="43.98907" lon="5.50899">
        <ele>992.89</ele>
        <time>2015-10-21T10:11:39Z</time>
      </trkpt>
      <trkpt lat="43.98895" lon="5.50899">
        <ele>994.11</ele>
        <time>2015-10-21T10:11:58Z</time>
      </trkpt>
      <trkpt lat="43.98886" lon="5.50891">
        <ele>995.59</ele>
        <time>2015-10-21T10:12:18Z</time>
      </trkpt>
      <trkpt lat="43.98877" lon="5.50875">
        <ele>998.16</ele>
        <time>2015-10-21T10:12:38Z</time>
      </trkpt>
      <trkpt lat="43.98871" lon="5.50856">
        <ele>1000.72</ele>
        <time>2015-10-21T10:12:57Z</time>
      </trkpt>
      <trkpt lat="43.98867" lon="5.50837">
        <ele>1001.85</ele>
        <time>2015-10-21T10:13:12Z</time>
      </trkpt>
      <trkpt lat="43.98859" lon="5.50823">
        <ele>1002.71</ele>
        <time>2015-10-21T10:13:34Z</time>
      </trkpt>
      <trkpt lat="43.98855" lon="5.50814">
        <ele>1003.56</ele>
        <time>2015-10-21T10:13:54Z</time>
      </trkpt>
      <trkpt lat="43.98848" lon="5.50808">
        <ele>1004.05</ele>
        <time>2015-10-21T10:14:19Z</time>
      </trkpt>
      <trkpt lat="43.9884" lon="5.50801">
        <ele>1005.81</ele>
        <time>2015-10-21T10:14:42Z</time>
      </trkpt>
      <trkpt lat="43.98836" lon="5.508">
        <ele>1004.92</ele>
        <time>2015-10-21T10:15:06Z</time>
      </trkpt>
      <trkpt lat="43.98834" lon="5.50803">
        <ele>1005.37</ele>
        <time>2015-10-21T10:15:37Z</time>
      </trkpt>
      <trkpt lat="43.98839" lon="5.50803">
        <ele>1005.28</ele>
        <time>2015-10-21T10:16:08Z</time>
      </trkpt>
      <trkpt lat="43.98834" lon="5.50807">
        <ele>1006.79</ele>
        <time>2015-10-21T10:16:25Z</time>
      </trkpt>
      <trkpt lat="43.98813" lon="5.50821">
        <ele>1007.92</ele>
        <time>2015-10-21T10:16:44Z</time>
      </trkpt>
      <trkpt lat="43.98799" lon="5.50834">
        <ele>1009.42</ele>
        <time>2015-10-21T10:17:02Z</time>
      </trkpt>
      <trkpt lat="43.98782" lon="5.50847">
        <ele>1010.72</ele>
        <time>2015-10-21T10:17:22Z</time>
      </trkpt>
      <trkpt lat="43.98771" lon="5.50859">
        <ele>1010.25</ele>
        <time>2015-10-21T10:17:38Z</time>
      </trkpt>
      <trkpt lat="43.9876" lon="5.50871">
        <ele>1011.27</ele>
        <time>2015-10-21T10:18:01Z</time>
      </trkpt>
      <trkpt lat="43.98756" lon="5.50889">
        <ele>1010.36</ele>
        <time>2015-10-21T10:18:21Z</time>
      </trkpt>
      <trkpt lat="43.98758" lon="5.50911">
        <ele>1009.6</ele>
        <time>2015-10-21T10:18:44Z</time>
      </trkpt>
      <trkpt lat="43.9875" lon="5.50923">
        <ele>1010.48</ele>
        <time>2015-10-21T10:19:03Z</time>
      </trkpt>
      <trkpt lat="43.9875" lon="5.50924">
        <ele>1009.51</ele>
        <time>2015-10-21T10:19:28Z</time>
      </trkpt>
      <trkpt lat="43.98746" lon="5.50924">
        <ele>1009.5</ele>
        <time>2015-10-21T10:20:00Z</time>
      </trkpt>
      <trkpt lat="43.98746" lon="5.50924">
        <ele>1009.74</ele>
        <time>2015-10-21T10:20:35Z</time>
      </trkpt>
      <trkpt lat="43.98747" lon="5.50923">
        <ele>1011.42</ele>
        <time>2015-10-21T11:26:34Z</time>
      </trkpt>
      <trkpt lat="43.98747" lon="5.50918">
        <ele>1011.12</ele>
        <time>2015-10-21T11:26:36Z</time>
      </trkpt>
      <trkpt lat="43.98758" lon="5.50925">
        <ele>1012.29</ele>
        <time>2015-10-21T11:26:49Z</time>
      </trkpt>
      <trkpt lat="43.98761" lon="5.50925">
        <ele>1015.5</ele>
        <time>2015-10-21T11:26:57Z</time>
      </trkpt>
      <trkpt lat="43.98761" lon="5.50926">
        <ele>1017.3</ele>
        <time>2015-10-21T11:27:01Z</time>
      </trkpt>
      <trkpt lat="43.98755" lon="5.50927">
        <ele>1020.63</ele>
        <time>2015-10-21T11:27:13Z</time>
      </trkpt>
      <trkpt lat="43.98752" lon="5.50928">
        <ele>1020.69</ele>
        <time>2015-10-21T11:27:50Z</time>
      </trkpt>
      <trkpt lat="43.98754" lon="5.50928">
        <ele>1020.36</ele>
        <time>2015-10-21T11:28:25Z</time>
      </trkpt>
      <trkpt lat="43.98754" lon="5.5093">
        <ele>1020.33</ele>
        <time>2015-10-21T11:28:50Z</time>
      </trkpt>
      <trkpt lat="43.98757" lon="5.50929">
        <ele>1020.75</ele>
        <time>2015-10-21T11:29:18Z</time>
      </trkpt>
      <trkpt lat="43.98758" lon="5.50929">
        <ele>1020.45</ele>
        <time>2015-10-21T11:29:41Z</time>
      </trkpt>
      <trkpt lat="43.98756" lon="5.50928">
        <ele>1020.52</ele>
        <time>2015-10-21T11:30:18Z</time>
      </trkpt>
      <trkpt lat="43.98749" lon="5.50922">
        <ele>1020.61</ele>
        <time>2015-10-21T11:30:26Z</time>
      </trkpt>
      <trkpt lat="43.98737" lon="5.50912">
        <ele>1023.51</ele>
        <time>2015-10-21T11:30:43Z</time>
      </trkpt>
      <trkpt lat="43.98726" lon="5.50904">
        <ele>1025.25</ele>
        <time>2015-10-21T11:31:00Z</time>
      </trkpt>
      <trkpt lat="43.98715" lon="5.5091">
        <ele>1026.45</ele>
        <time>2015-10-21T11:31:17Z</time>
      </trkpt>
      <trkpt lat="43.98702" lon="5.50924">
        <ele>1027.18</ele>
        <time>2015-10-21T11:31:37Z</time>
      </trkpt>
      <trkpt lat="43.98692" lon="5.50936">
        <ele>1027.67</ele>
        <time>2015-10-21T11:31:53Z</time>
      </trkpt>
      <trkpt lat="43.98678" lon="5.50947">
        <ele>1028.34</ele>
        <time>2015-10-21T11:32:12Z</time>
      </trkpt>
      <trkpt lat="43.98664" lon="5.50958">
        <ele>1029.15</ele>
        <time>2015-10-21T11:32:28Z</time>
      </trkpt>
      <trkpt lat="43.98649" lon="5.50967">
        <ele>1029.73</ele>
        <time>2015-10-21T11:32:44Z</time>
      </trkpt>
      <trkpt lat="43.98633" lon="5.50975">
        <ele>1030.09</ele>
        <time>2015-10-21T11:33:01Z</time>
      </trkpt>
      <trkpt lat="43.98617" lon="5.50984">
        <ele>1032.82</ele>
        <time>2015-10-21T11:33:18Z</time>
      </trkpt>
      <trkpt lat="43.98603" lon="5.50993">
        <ele>1032.9</ele>
        <time>2015-10-21T11:33:35Z</time>
      </trkpt>
      <trkpt lat="43.98588" lon="5.51001">
        <ele>1033.65</ele>
        <time>2015-10-21T11:33:51Z</time>
      </trkpt>
      <trkpt lat="43.98572" lon="5.51009">
        <ele>1034.65</ele>
        <time>2015-10-21T11:34:08Z</time>
      </trkpt>
      <trkpt lat="43.98558" lon="5.51013">
        <ele>1035.61</ele>
        <time>2015-10-21T11:34:24Z</time>
      </trkpt>
      <trkpt lat="43.98553" lon="5.51013">
        <ele>1036.23</ele>
        <time>2015-10-21T11:34:30Z</time>
      </trkpt>
      <trkpt lat="43.98539" lon="5.51015">
        <ele>1037.81</ele>
        <time>2015-10-21T11:34:46Z</time>
      </trkpt>
      <trkpt lat="43.9852" lon="5.51015">
        <ele>1038.35</ele>
        <time>2015-10-21T11:35:06Z</time>
      </trkpt>
      <trkpt lat="43.98502" lon="5.51009">
        <ele>1039.03</ele>
        <time>2015-10-21T11:35:27Z</time>
      </trkpt>
      <trkpt lat="43.98484" lon="5.51005">
        <ele>1039.42</ele>
        <time>2015-10-21T11:35:44Z</time>
      </trkpt>
      <trkpt lat="43.98465" lon="5.51005">
        <ele>1040.71</ele>
        <time>2015-10-21T11:36:02Z</time>
      </trkpt>
      <trkpt lat="43.98445" lon="5.51005">
        <ele>1041.97</ele>
        <time>2015-10-21T11:36:22Z</time>
      </trkpt>
      <trkpt lat="43.98422" lon="5.51003">
        <ele>1042.86</ele>
        <time>2015-10-21T11:36:42Z</time>
      </trkpt>
      <trkpt lat="43.98408" lon="5.51001">
        <ele>1043.49</ele>
        <time>2015-10-21T11:36:53Z</time>
      </trkpt>
      <trkpt lat="43.98393" lon="5.50997">
        <ele>1044.53</ele>
        <time>2015-10-21T11:37:08Z</time>
      </trkpt>
      <trkpt lat="43.98386" lon="5.50994">
        <ele>1044.71</ele>
        <time>2015-10-21T11:37:15Z</time>
      </trkpt>
      <trkpt lat="43.98369" lon="5.50988">
        <ele>1046.04</ele>
        <time>2015-10-21T11:37:34Z</time>
      </trkpt>
      <trkpt lat="43.98347" lon="5.50981">
        <ele>1047.86</ele>
        <time>2015-10-21T11:37:58Z</time>
      </trkpt>
      <trkpt lat="43.98331" lon="5.50977">
        <ele>1048.44</ele>
        <time>2015-10-21T11:38:17Z</time>
      </trkpt>
      <trkpt lat="43.98314" lon="5.50972">
        <ele>1050.06</ele>
        <time>2015-10-21T11:38:37Z</time>
      </trkpt>
      <trkpt lat="43.98295" lon="5.50968">
        <ele>1051.23</ele>
        <time>2015-10-21T11:38:58Z</time>
      </trkpt>
      <trkpt lat="43.98272" lon="5.50956">
        <ele>1052</ele>
        <time>2015-10-21T11:39:17Z</time>
      </trkpt>
      <trkpt lat="43.98251" lon="5.50951">
        <ele>1052.73</ele>
        <time>2015-10-21T11:39:36Z</time>
      </trkpt>
      <trkpt lat="43.98231" lon="5.50945">
        <ele>1053.23</ele>
        <time>2015-10-21T11:39:51Z</time>
      </trkpt>
      <trkpt lat="43.98214" lon="5.50939">
        <ele>1053.55</ele>
        <time>2015-10-21T11:40:09Z</time>
      </trkpt>
      <trkpt lat="43.98199" lon="5.50935">
        <ele>1053.29</ele>
        <time>2015-10-21T11:40:23Z</time>
      </trkpt>
      <trkpt lat="43.98182" lon="5.50927">
        <ele>1053.33</ele>
        <time>2015-10-21T11:40:40Z</time>
      </trkpt>
      <trkpt lat="43.98167" lon="5.50922">
        <ele>1053.55</ele>
        <time>2015-10-21T11:40:54Z</time>
      </trkpt>
      <trkpt lat="43.98153" lon="5.50914">
        <ele>1052.25</ele>
        <time>2015-10-21T11:41:09Z</time>
      </trkpt>
      <trkpt lat="43.98134" lon="5.50902">
        <ele>1051.95</ele>
        <time>2015-10-21T11:41:28Z</time>
      </trkpt>
      <trkpt lat="43.98115" lon="5.50891">
        <ele>1051.62</ele>
        <time>2015-10-21T11:41:45Z</time>
      </trkpt>
      <trkpt lat="43.981" lon="5.50881">
        <ele>1051.24</ele>
        <time>2015-10-21T11:42:01Z</time>
      </trkpt>
      <trkpt lat="43.98094" lon="5.5088">
        <ele>1051.62</ele>
        <time>2015-10-21T11:42:07Z</time>
      </trkpt>
      <trkpt lat="43.98075" lon="5.5088">
        <ele>1051.37</ele>
        <time>2015-10-21T11:42:25Z</time>
      </trkpt>
      <trkpt lat="43.98055" lon="5.50884">
        <ele>1051.69</ele>
        <time>2015-10-21T11:42:44Z</time>
      </trkpt>
      <trkpt lat="43.98033" lon="5.50889">
        <ele>1050.68</ele>
        <time>2015-10-21T11:43:06Z</time>
      </trkpt>
      <trkpt lat="43.98017" lon="5.5089">
        <ele>1050.85</ele>
        <time>2015-10-21T11:43:23Z</time>
      </trkpt>
      <trkpt lat="43.98" lon="5.50891">
        <ele>1050.17</ele>
        <time>2015-10-21T11:43:38Z</time>
      </trkpt>
      <trkpt lat="43.97984" lon="5.50893">
        <ele>1049.03</ele>
        <time>2015-10-21T11:43:54Z</time>
      </trkpt>
      <trkpt lat="43.97963" lon="5.50892">
        <ele>1047.93</ele>
        <time>2015-10-21T11:44:14Z</time>
      </trkpt>
      <trkpt lat="43.97941" lon="5.50888">
        <ele>1047.11</ele>
        <time>2015-10-21T11:44:32Z</time>
      </trkpt>
      <trkpt lat="43.97935" lon="5.50889">
        <ele>1047.13</ele>
        <time>2015-10-21T11:44:48Z</time>
      </trkpt>
      <trkpt lat="43.97922" lon="5.50885">
        <ele>1045.33</ele>
        <time>2015-10-21T11:45:03Z</time>
      </trkpt>
      <trkpt lat="43.97922" lon="5.50884">
        <ele>1045.41</ele>
        <time>2015-10-21T11:45:04Z</time>
      </trkpt>
      <trkpt lat="43.97916" lon="5.50879">
        <ele>1045.92</ele>
        <time>2015-10-21T11:45:12Z</time>
      </trkpt>
      <trkpt lat="43.97913" lon="5.50875">
        <ele>1045.39</ele>
        <time>2015-10-21T11:45:16Z</time>
      </trkpt>
      <trkpt lat="43.97901" lon="5.50858">
        <ele>1045.58</ele>
        <time>2015-10-21T11:45:33Z</time>
      </trkpt>
      <trkpt lat="43.97883" lon="5.50844">
        <ele>1046.44</ele>
        <time>2015-10-21T11:45:54Z</time>
      </trkpt>
      <trkpt lat="43.97865" lon="5.50836">
        <ele>1046.72</ele>
        <time>2015-10-21T11:46:11Z</time>
      </trkpt>
      <trkpt lat="43.97849" lon="5.5083">
        <ele>1046.33</ele>
        <time>2015-10-21T11:46:26Z</time>
      </trkpt>
      <trkpt lat="43.97835" lon="5.50817">
        <ele>1047.61</ele>
        <time>2015-10-21T11:46:48Z</time>
      </trkpt>
      <trkpt lat="43.97821" lon="5.50808">
        <ele>1048.36</ele>
        <time>2015-10-21T11:47:09Z</time>
      </trkpt>
      <trkpt lat="43.97808" lon="5.50792">
        <ele>1049.79</ele>
        <time>2015-10-21T11:47:32Z</time>
      </trkpt>
      <trkpt lat="43.97791" lon="5.50775">
        <ele>1051.21</ele>
        <time>2015-10-21T11:47:50Z</time>
      </trkpt>
      <trkpt lat="43.9777" lon="5.50762">
        <ele>1053.49</ele>
        <time>2015-10-21T11:48:12Z</time>
      </trkpt>
      <trkpt lat="43.97752" lon="5.50758">
        <ele>1054.35</ele>
        <time>2015-10-21T11:48:32Z</time>
      </trkpt>
      <trkpt lat="43.97734" lon="5.50752">
        <ele>1055.14</ele>
        <time>2015-10-21T11:48:51Z</time>
      </trkpt>
      <trkpt lat="43.97717" lon="5.50748">
        <ele>1056.28</ele>
        <time>2015-10-21T11:49:09Z</time>
      </trkpt>
      <trkpt lat="43.97712" lon="5.50743">
        <ele>1055.96</ele>
        <time>2015-10-21T11:49:16Z</time>
      </trkpt>
      <trkpt lat="43.97698" lon="5.50729">
        <ele>1057.14</ele>
        <time>2015-10-21T11:49:34Z</time>
      </trkpt>
      <trkpt lat="43.97689" lon="5.50714">
        <ele>1058.26</ele>
        <time>2015-10-21T11:49:49Z</time>
      </trkpt>
      <trkpt lat="43.97687" lon="5.50711">
        <ele>1058.29</ele>
        <time>2015-10-21T11:49:52Z</time>
      </trkpt>
      <trkpt lat="43.97675" lon="5.50695">
        <ele>1059.08</ele>
        <time>2015-10-21T11:50:10Z</time>
      </trkpt>
      <trkpt lat="43.97665" lon="5.50677">
        <ele>1060.61</ele>
        <time>2015-10-21T11:50:28Z</time>
      </trkpt>
      <trkpt lat="43.97651" lon="5.50658">
        <ele>1062.07</ele>
        <time>2015-10-21T11:50:48Z</time>
      </trkpt>
      <trkpt lat="43.97639" lon="5.50643">
        <ele>1062.38</ele>
        <time>2015-10-21T11:51:04Z</time>
      </trkpt>
      <trkpt lat="43.97625" lon="5.50635">
        <ele>1063.81</ele>
        <time>2015-10-21T11:51:19Z</time>
      </trkpt>
      <trkpt lat="43.97608" lon="5.50628">
        <ele>1065.41</ele>
        <time>2015-10-21T11:51:37Z</time>
      </trkpt>
      <trkpt lat="43.97596" lon="5.50621">
        <ele>1066.39</ele>
        <time>2015-10-21T11:51:52Z</time>
      </trkpt>
      <trkpt lat="43.97582" lon="5.50608">
        <ele>1067.54</ele>
        <time>2015-10-21T11:52:10Z</time>
      </trkpt>
      <trkpt lat="43.97576" lon="5.50604">
        <ele>1067.83</ele>
        <time>2015-10-21T11:52:17Z</time>
      </trkpt>
      <trkpt lat="43.97574" lon="5.506">
        <ele>1068.32</ele>
        <time>2015-10-21T11:52:21Z</time>
      </trkpt>
      <trkpt lat="43.9756" lon="5.50584">
        <ele>1069.08</ele>
        <time>2015-10-21T11:52:42Z</time>
      </trkpt>
      <trkpt lat="43.97549" lon="5.50568">
        <ele>1070.58</ele>
        <time>2015-10-21T11:52:59Z</time>
      </trkpt>
      <trkpt lat="43.97545" lon="5.50551">
        <ele>1071.48</ele>
        <time>2015-10-21T11:53:13Z</time>
      </trkpt>
      <trkpt lat="43.97538" lon="5.50527">
        <ele>1073.71</ele>
        <time>2015-10-21T11:53:33Z</time>
      </trkpt>
      <trkpt lat="43.97536" lon="5.50504">
        <ele>1075.74</ele>
        <time>2015-10-21T11:53:51Z</time>
      </trkpt>
      <trkpt lat="43.97535" lon="5.50488">
        <ele>1075.64</ele>
        <time>2015-10-21T11:54:06Z</time>
      </trkpt>
      <trkpt lat="43.97535" lon="5.50465">
        <ele>1076.57</ele>
        <time>2015-10-21T11:54:24Z</time>
      </trkpt>
      <trkpt lat="43.97533" lon="5.50457">
        <ele>1076.79</ele>
        <time>2015-10-21T11:54:31Z</time>
      </trkpt>
      <trkpt lat="43.97534" lon="5.5043">
        <ele>1079.25</ele>
        <time>2015-10-21T11:54:51Z</time>
      </trkpt>
      <trkpt lat="43.97536" lon="5.50413">
        <ele>1079.53</ele>
        <time>2015-10-21T11:55:05Z</time>
      </trkpt>
      <trkpt lat="43.97539" lon="5.50395">
        <ele>1080.84</ele>
        <time>2015-10-21T11:55:18Z</time>
      </trkpt>
      <trkpt lat="43.97541" lon="5.50369">
        <ele>1082.29</ele>
        <time>2015-10-21T11:55:37Z</time>
      </trkpt>
      <trkpt lat="43.9754" lon="5.50359">
        <ele>1084.8</ele>
        <time>2015-10-21T11:55:46Z</time>
      </trkpt>
      <trkpt lat="43.97539" lon="5.50356">
        <ele>1083.42</ele>
        <time>2015-10-21T11:55:49Z</time>
      </trkpt>
      <trkpt lat="43.97532" lon="5.50342">
        <ele>1085.44</ele>
        <time>2015-10-21T11:56:06Z</time>
      </trkpt>
      <trkpt lat="43.97526" lon="5.50336">
        <ele>1086.19</ele>
        <time>2015-10-21T11:56:17Z</time>
      </trkpt>
      <trkpt lat="43.97519" lon="5.50336">
        <ele>1086.7</ele>
        <time>2015-10-21T11:56:32Z</time>
      </trkpt>
      <trkpt lat="43.97509" lon="5.50339">
        <ele>1085.42</ele>
        <time>2015-10-21T11:56:48Z</time>
      </trkpt>
      <trkpt lat="43.97493" lon="5.50334">
        <ele>1085.93</ele>
        <time>2015-10-21T11:57:06Z</time>
      </trkpt>
      <trkpt lat="43.9749" lon="5.50333">
        <ele>1085.43</ele>
        <time>2015-10-21T11:57:21Z</time>
      </trkpt>
      <trkpt lat="43.97488" lon="5.50331">
        <ele>1086.84</ele>
        <time>2015-10-21T11:57:59Z</time>
      </trkpt>
      <trkpt lat="43.9749" lon="5.50326">
        <ele>1086.99</ele>
        <time>2015-10-21T11:58:21Z</time>
      </trkpt>
      <trkpt lat="43.9749" lon="5.50327">
        <ele>1087.3</ele>
        <time>2015-10-21T11:58:45Z</time>
      </trkpt>
      <trkpt lat="43.97491" lon="5.50329">
        <ele>1086.78</ele>
        <time>2015-10-21T11:59:16Z</time>
      </trkpt>
      <trkpt lat="43.97491" lon="5.50339">
        <ele>1086.67</ele>
        <time>2015-10-21T11:59:26Z</time>
      </trkpt>
      <trkpt lat="43.97488" lon="5.50342">
        <ele>1086.32</ele>
        <time>2015-10-21T11:59:29Z</time>
      </trkpt>
      <trkpt lat="43.97478" lon="5.50345">
        <ele>1085.83</ele>
        <time>2015-10-21T11:59:39Z</time>
      </trkpt>
      <trkpt lat="43.97461" lon="5.50348">
        <ele>1086.1</ele>
        <time>2015-10-21T11:59:58Z</time>
      </trkpt>
      <trkpt lat="43.97455" lon="5.50349">
        <ele>1085.76</ele>
        <time>2015-10-21T12:00:04Z</time>
      </trkpt>
      <trkpt lat="43.9745" lon="5.50349">
        <ele>1086.46</ele>
        <time>2015-10-21T12:00:08Z</time>
      </trkpt>
      <trkpt lat="43.97431" lon="5.50351">
        <ele>1086.13</ele>
        <time>2015-10-21T12:00:27Z</time>
      </trkpt>
      <trkpt lat="43.97414" lon="5.50351">
        <ele>1086.29</ele>
        <time>2015-10-21T12:00:44Z</time>
      </trkpt>
      <trkpt lat="43.97398" lon="5.50352">
        <ele>1085.49</ele>
        <time>2015-10-21T12:00:59Z</time>
      </trkpt>
      <trkpt lat="43.9739" lon="5.50351">
        <ele>1085.79</ele>
        <time>2015-10-21T12:01:13Z</time>
      </trkpt>
      <trkpt lat="43.97374" lon="5.50352">
        <ele>1085.27</ele>
        <time>2015-10-21T12:01:29Z</time>
      </trkpt>
      <trkpt lat="43.97352" lon="5.5035">
        <ele>1084.39</ele>
        <time>2015-10-21T12:01:50Z</time>
      </trkpt>
      <trkpt lat="43.97331" lon="5.50343">
        <ele>1082.87</ele>
        <time>2015-10-21T12:02:11Z</time>
      </trkpt>
      <trkpt lat="43.97319" lon="5.50334">
        <ele>1081.2</ele>
        <time>2015-10-21T12:02:25Z</time>
      </trkpt>
      <trkpt lat="43.97304" lon="5.50323">
        <ele>1079.21</ele>
        <time>2015-10-21T12:02:41Z</time>
      </trkpt>
      <trkpt lat="43.97289" lon="5.50312">
        <ele>1077.64</ele>
        <time>2015-10-21T12:02:56Z</time>
      </trkpt>
      <trkpt lat="43.97277" lon="5.50305">
        <ele>1076.95</ele>
        <time>2015-10-21T12:03:11Z</time>
      </trkpt>
      <trkpt lat="43.97259" lon="5.503">
        <ele>1075.35</ele>
        <time>2015-10-21T12:03:29Z</time>
      </trkpt>
      <trkpt lat="43.9724" lon="5.50299">
        <ele>1073.59</ele>
        <time>2015-10-21T12:03:49Z</time>
      </trkpt>
      <trkpt lat="43.97223" lon="5.50301">
        <ele>1071.86</ele>
        <time>2015-10-21T12:04:07Z</time>
      </trkpt>
      <trkpt lat="43.9721" lon="5.50302">
        <ele>1071.82</ele>
        <time>2015-10-21T12:04:21Z</time>
      </trkpt>
      <trkpt lat="43.9719" lon="5.50306">
        <ele>1068.91</ele>
        <time>2015-10-21T12:04:39Z</time>
      </trkpt>
      <trkpt lat="43.97176" lon="5.50308">
        <ele>1067.9</ele>
        <time>2015-10-21T12:04:56Z</time>
      </trkpt>
      <trkpt lat="43.97158" lon="5.50311">
        <ele>1066.95</ele>
        <time>2015-10-21T12:05:17Z</time>
      </trkpt>
      <trkpt lat="43.9714" lon="5.50315">
        <ele>1065.19</ele>
        <time>2015-10-21T12:05:39Z</time>
      </trkpt>
      <trkpt lat="43.97132" lon="5.50317">
        <ele>1064.92</ele>
        <time>2015-10-21T12:05:47Z</time>
      </trkpt>
      <trkpt lat="43.97116" lon="5.50329">
        <ele>1064.16</ele>
        <time>2015-10-21T12:06:05Z</time>
      </trkpt>
      <trkpt lat="43.97108" lon="5.50336">
        <ele>1063.45</ele>
        <time>2015-10-21T12:06:23Z</time>
      </trkpt>
      <trkpt lat="43.97109" lon="5.50338">
        <ele>1063.72</ele>
        <time>2015-10-21T12:06:41Z</time>
      </trkpt>
      <trkpt lat="43.97111" lon="5.50338">
        <ele>1063.2</ele>
        <time>2015-10-21T12:07:15Z</time>
      </trkpt>
      <trkpt lat="43.97111" lon="5.50339">
        <ele>1062.9</ele>
        <time>2015-10-21T12:07:53Z</time>
      </trkpt>
      <trkpt lat="43.97104" lon="5.50345">
        <ele>1062.65</ele>
        <time>2015-10-21T12:08:14Z</time>
      </trkpt>
      <trkpt lat="43.97096" lon="5.50357">
        <ele>1062.15</ele>
        <time>2015-10-21T12:08:32Z</time>
      </trkpt>
      <trkpt lat="43.97086" lon="5.50368">
        <ele>1061.35</ele>
        <time>2015-10-21T12:08:47Z</time>
      </trkpt>
      <trkpt lat="43.97076" lon="5.50386">
        <ele>1059.86</ele>
        <time>2015-10-21T12:09:03Z</time>
      </trkpt>
      <trkpt lat="43.97066" lon="5.50409">
        <ele>1057.96</ele>
        <time>2015-10-21T12:09:22Z</time>
      </trkpt>
      <trkpt lat="43.97053" lon="5.5043">
        <ele>1056.26</ele>
        <time>2015-10-21T12:09:43Z</time>
      </trkpt>
      <trkpt lat="43.97052" lon="5.50431">
        <ele>1056.36</ele>
        <time>2015-10-21T12:09:44Z</time>
      </trkpt>
      <trkpt lat="43.97031" lon="5.50448">
        <ele>1055.59</ele>
        <time>2015-10-21T12:10:06Z</time>
      </trkpt>
      <trkpt lat="43.97025" lon="5.50448">
        <ele>1055.19</ele>
        <time>2015-10-21T12:10:12Z</time>
      </trkpt>
      <trkpt lat="43.97005" lon="5.50456">
        <ele>1054.79</ele>
        <time>2015-10-21T12:10:35Z</time>
      </trkpt>
      <trkpt lat="43.96986" lon="5.50468">
        <ele>1052.43</ele>
        <time>2015-10-21T12:10:58Z</time>
      </trkpt>
      <trkpt lat="43.96984" lon="5.50474">
        <ele>1052.47</ele>
        <time>2015-10-21T12:11:03Z</time>
      </trkpt>
      <trkpt lat="43.96981" lon="5.5049">
        <ele>1051.03</ele>
        <time>2015-10-21T12:11:18Z</time>
      </trkpt>
      <trkpt lat="43.96983" lon="5.50492">
        <ele>1051.7</ele>
        <time>2015-10-21T12:11:41Z</time>
      </trkpt>
      <trkpt lat="43.96982" lon="5.50503">
        <ele>1050.41</ele>
        <time>2015-10-21T12:11:56Z</time>
      </trkpt>
      <trkpt lat="43.96983" lon="5.50508">
        <ele>1051.31</ele>
        <time>2015-10-21T12:11:59Z</time>
      </trkpt>
      <trkpt lat="43.96985" lon="5.50528">
        <ele>1050.11</ele>
        <time>2015-10-21T12:12:13Z</time>
      </trkpt>
      <trkpt lat="43.9699" lon="5.50552">
        <ele>1049.91</ele>
        <time>2015-10-21T12:12:31Z</time>
      </trkpt>
      <trkpt lat="43.96992" lon="5.50577">
        <ele>1048.37</ele>
        <time>2015-10-21T12:12:47Z</time>
      </trkpt>
      <trkpt lat="43.96992" lon="5.50579">
        <ele>1048.44</ele>
        <time>2015-10-21T12:12:48Z</time>
      </trkpt>
      <trkpt lat="43.96997" lon="5.50601">
        <ele>1047.55</ele>
        <time>2015-10-21T12:13:03Z</time>
      </trkpt>
      <trkpt lat="43.96998" lon="5.50605">
        <ele>1048.8</ele>
        <time>2015-10-21T12:13:05Z</time>
      </trkpt>
      <trkpt lat="43.97004" lon="5.50623">
        <ele>1048.09</ele>
        <time>2015-10-21T12:13:20Z</time>
      </trkpt>
      <trkpt lat="43.97009" lon="5.50641">
        <ele>1046.91</ele>
        <time>2015-10-21T12:13:33Z</time>
      </trkpt>
      <trkpt lat="43.97014" lon="5.50661">
        <ele>1047.99</ele>
        <time>2015-10-21T12:13:47Z</time>
      </trkpt>
      <trkpt lat="43.97016" lon="5.50669">
        <ele>1047.85</ele>
        <time>2015-10-21T12:13:53Z</time>
      </trkpt>
      <trkpt lat="43.97019" lon="5.50689">
        <ele>1047.67</ele>
        <time>2015-10-21T12:14:08Z</time>
      </trkpt>
      <trkpt lat="43.9702" lon="5.50699">
        <ele>1047.97</ele>
        <time>2015-10-21T12:14:15Z</time>
      </trkpt>
      <trkpt lat="43.97022" lon="5.50722">
        <ele>1046.77</ele>
        <time>2015-10-21T12:14:30Z</time>
      </trkpt>
      <trkpt lat="43.97027" lon="5.50742">
        <ele>1045.92</ele>
        <time>2015-10-21T12:14:45Z</time>
      </trkpt>
      <trkpt lat="43.97028" lon="5.5075">
        <ele>1044.66</ele>
        <time>2015-10-21T12:14:50Z</time>
      </trkpt>
      <trkpt lat="43.97031" lon="5.50772">
        <ele>1044.42</ele>
        <time>2015-10-21T12:15:04Z</time>
      </trkpt>
      <trkpt lat="43.97035" lon="5.50809">
        <ele>1043.77</ele>
        <time>2015-10-21T12:15:24Z</time>
      </trkpt>
      <trkpt lat="43.97045" lon="5.5083">
        <ele>1042.4</ele>
        <time>2015-10-21T12:15:41Z</time>
      </trkpt>
      <trkpt lat="43.97057" lon="5.50846">
        <ele>1043.81</ele>
        <time>2015-10-21T12:15:57Z</time>
      </trkpt>
      <trkpt lat="43.97075" lon="5.5085">
        <ele>1046.05</ele>
        <time>2015-10-21T12:16:16Z</time>
      </trkpt>
      <trkpt lat="43.97095" lon="5.50854">
        <ele>1048.27</ele>
        <time>2015-10-21T12:16:38Z</time>
      </trkpt>
      <trkpt lat="43.97099" lon="5.50847">
        <ele>1046.96</ele>
        <time>2015-10-21T12:16:57Z</time>
      </trkpt>
      <trkpt lat="43.971" lon="5.50846">
        <ele>1047.16</ele>
        <time>2015-10-21T12:17:40Z</time>
      </trkpt>
      <trkpt lat="43.971" lon="5.50846">
        <ele>1047.75</ele>
        <time>2015-10-21T12:18:14Z</time>
      </trkpt>
      <trkpt lat="43.97099" lon="5.50846">
        <ele>1047.57</ele>
        <time>2015-10-21T12:18:55Z</time>
      </trkpt>
      <trkpt lat="43.97099" lon="5.50845">
        <ele>1047.68</ele>
        <time>2015-10-21T12:19:31Z</time>
      </trkpt>
      <trkpt lat="43.971" lon="5.50844">
        <ele>1047.46</ele>
        <time>2015-10-21T12:19:54Z</time>
      </trkpt>
      <trkpt lat="43.97099" lon="5.50844">
        <ele>1048.07</ele>
        <time>2015-10-21T12:20:20Z</time>
      </trkpt>
      <trkpt lat="43.97099" lon="5.50846">
        <ele>1048.54</ele>
        <time>2015-10-21T12:20:40Z</time>
      </trkpt>
      <trkpt lat="43.97099" lon="5.50846">
        <ele>1048.81</ele>
        <time>2015-10-21T12:21:11Z</time>
      </trkpt>
      <trkpt lat="43.97099" lon="5.50846">
        <ele>1050.25</ele>
        <time>2015-10-21T12:21:34Z</time>
      </trkpt>
      <trkpt lat="43.97099" lon="5.50847">
        <ele>1048.95</ele>
        <time>2015-10-21T12:21:36Z</time>
      </trkpt>
      <trkpt lat="43.971" lon="5.50849">
        <ele>1048.74</ele>
        <time>2015-10-21T12:21:55Z</time>
      </trkpt>
      <trkpt lat="43.971" lon="5.5085">
        <ele>1048.7</ele>
        <time>2015-10-21T12:22:32Z</time>
      </trkpt>
      <trkpt lat="43.97101" lon="5.50852">
        <ele>1048.61</ele>
        <time>2015-10-21T12:23:10Z</time>
      </trkpt>
      <trkpt lat="43.97109" lon="5.50869">
        <ele>1049.83</ele>
        <time>2015-10-21T12:23:28Z</time>
      </trkpt>
      <trkpt lat="43.97114" lon="5.50885">
        <ele>1049.01</ele>
        <time>2015-10-21T12:23:43Z</time>
      </trkpt>
      <trkpt lat="43.97114" lon="5.50892">
        <ele>1048.66</ele>
        <time>2015-10-21T12:23:49Z</time>
      </trkpt>
      <trkpt lat="43.97115" lon="5.50901">
        <ele>1048.7</ele>
        <time>2015-10-21T12:23:57Z</time>
      </trkpt>
      <trkpt lat="43.97115" lon="5.5092">
        <ele>1048.13</ele>
        <time>2015-10-21T12:24:12Z</time>
      </trkpt>
      <trkpt lat="43.97116" lon="5.50933">
        <ele>1048.12</ele>
        <time>2015-10-21T12:24:23Z</time>
      </trkpt>
      <trkpt lat="43.97116" lon="5.50947">
        <ele>1047.53</ele>
        <time>2015-10-21T12:24:33Z</time>
      </trkpt>
      <trkpt lat="43.97115" lon="5.50954">
        <ele>1046.74</ele>
        <time>2015-10-21T12:24:38Z</time>
      </trkpt>
      <trkpt lat="43.97115" lon="5.50957">
        <ele>1047.04</ele>
        <time>2015-10-21T12:24:40Z</time>
      </trkpt>
      <trkpt lat="43.97112" lon="5.50979">
        <ele>1046.56</ele>
        <time>2015-10-21T12:24:56Z</time>
      </trkpt>
      <trkpt lat="43.97111" lon="5.51005">
        <ele>1045.27</ele>
        <time>2015-10-21T12:25:13Z</time>
      </trkpt>
      <trkpt lat="43.97109" lon="5.51016">
        <ele>1046.31</ele>
        <time>2015-10-21T12:25:21Z</time>
      </trkpt>
      <trkpt lat="43.97106" lon="5.51041">
        <ele>1044.33</ele>
        <time>2015-10-21T12:25:36Z</time>
      </trkpt>
      <trkpt lat="43.97101" lon="5.51067">
        <ele>1042.92</ele>
        <time>2015-10-21T12:25:52Z</time>
      </trkpt>
      <trkpt lat="43.97101" lon="5.51094">
        <ele>1042.38</ele>
        <time>2015-10-21T12:26:07Z</time>
      </trkpt>
      <trkpt lat="43.971" lon="5.51118">
        <ele>1044.26</ele>
        <time>2015-10-21T12:26:22Z</time>
      </trkpt>
      <trkpt lat="43.97099" lon="5.51144">
        <ele>1042.49</ele>
        <time>2015-10-21T12:26:37Z</time>
      </trkpt>
      <trkpt lat="43.97097" lon="5.51164">
        <ele>1042.18</ele>
        <time>2015-10-21T12:26:51Z</time>
      </trkpt>
      <trkpt lat="43.97096" lon="5.51183">
        <ele>1040.93</ele>
        <time>2015-10-21T12:27:04Z</time>
      </trkpt>
      <trkpt lat="43.97096" lon="5.51207">
        <ele>1040.9</ele>
        <time>2015-10-21T12:27:19Z</time>
      </trkpt>
      <trkpt lat="43.97096" lon="5.51226">
        <ele>1041.45</ele>
        <time>2015-10-21T12:27:33Z</time>
      </trkpt>
      <trkpt lat="43.97095" lon="5.5123">
        <ele>1041.28</ele>
        <time>2015-10-21T12:27:36Z</time>
      </trkpt>
      <trkpt lat="43.97094" lon="5.5124">
        <ele>1042.02</ele>
        <time>2015-10-21T12:27:43Z</time>
      </trkpt>
      <trkpt lat="43.97098" lon="5.51261">
        <ele>1042.45</ele>
        <time>2015-10-21T12:27:59Z</time>
      </trkpt>
      <trkpt lat="43.971" lon="5.51266">
        <ele>1043.63</ele>
        <time>2015-10-21T12:28:03Z</time>
      </trkpt>
      <trkpt lat="43.97101" lon="5.51267">
        <ele>1043.5</ele>
        <time>2015-10-21T12:28:04Z</time>
      </trkpt>
      <trkpt lat="43.97111" lon="5.51278">
        <ele>1046.51</ele>
        <time>2015-10-21T12:28:20Z</time>
      </trkpt>
      <trkpt lat="43.97126" lon="5.51284">
        <ele>1048.85</ele>
        <time>2015-10-21T12:28:41Z</time>
      </trkpt>
      <trkpt lat="43.97142" lon="5.5129">
        <ele>1050.37</ele>
        <time>2015-10-21T12:29:01Z</time>
      </trkpt>
      <trkpt lat="43.97143" lon="5.51292">
        <ele>1050.51</ele>
        <time>2015-10-21T12:29:04Z</time>
      </trkpt>
      <trkpt lat="43.97147" lon="5.51315">
        <ele>1052.73</ele>
        <time>2015-10-21T12:29:21Z</time>
      </trkpt>
      <trkpt lat="43.97144" lon="5.51336">
        <ele>1051.45</ele>
        <time>2015-10-21T12:29:37Z</time>
      </trkpt>
      <trkpt lat="43.97143" lon="5.51357">
        <ele>1052.36</ele>
        <time>2015-10-21T12:29:51Z</time>
      </trkpt>
      <trkpt lat="43.9714" lon="5.51376">
        <ele>1052.09</ele>
        <time>2015-10-21T12:30:05Z</time>
      </trkpt>
      <trkpt lat="43.97138" lon="5.51391">
        <ele>1052.91</ele>
        <time>2015-10-21T12:30:16Z</time>
      </trkpt>
      <trkpt lat="43.97136" lon="5.51408">
        <ele>1052.28</ele>
        <time>2015-10-21T12:30:29Z</time>
      </trkpt>
      <trkpt lat="43.97136" lon="5.51418">
        <ele>1051.94</ele>
        <time>2015-10-21T12:30:44Z</time>
      </trkpt>
      <trkpt lat="43.9713" lon="5.51426">
        <ele>1052.61</ele>
        <time>2015-10-21T12:30:53Z</time>
      </trkpt>
      <trkpt lat="43.97116" lon="5.51428">
        <ele>1051.26</ele>
        <time>2015-10-21T12:31:08Z</time>
      </trkpt>
      <trkpt lat="43.97113" lon="5.51427">
        <ele>1050.78</ele>
        <time>2015-10-21T12:31:11Z</time>
      </trkpt>
      <trkpt lat="43.97093" lon="5.5143">
        <ele>1049.16</ele>
        <time>2015-10-21T12:31:31Z</time>
      </trkpt>
      <trkpt lat="43.97078" lon="5.51437">
        <ele>1047.59</ele>
        <time>2015-10-21T12:31:49Z</time>
      </trkpt>
      <trkpt lat="43.97066" lon="5.51449">
        <ele>1046.86</ele>
        <time>2015-10-21T12:32:04Z</time>
      </trkpt>
      <trkpt lat="43.97054" lon="5.51463">
        <ele>1046.16</ele>
        <time>2015-10-21T12:32:21Z</time>
      </trkpt>
      <trkpt lat="43.97051" lon="5.51467">
        <ele>1045.66</ele>
        <time>2015-10-21T12:32:25Z</time>
      </trkpt>
      <trkpt lat="43.97043" lon="5.51476">
        <ele>1045.43</ele>
        <time>2015-10-21T12:32:35Z</time>
      </trkpt>
      <trkpt lat="43.97029" lon="5.51494">
        <ele>1044.73</ele>
        <time>2015-10-21T12:32:54Z</time>
      </trkpt>
      <trkpt lat="43.97017" lon="5.51509">
        <ele>1044</ele>
        <time>2015-10-21T12:33:09Z</time>
      </trkpt>
      <trkpt lat="43.97004" lon="5.51523">
        <ele>1042.31</ele>
        <time>2015-10-21T12:33:25Z</time>
      </trkpt>
      <trkpt lat="43.96988" lon="5.51535">
        <ele>1041.45</ele>
        <time>2015-10-21T12:33:42Z</time>
      </trkpt>
      <trkpt lat="43.96972" lon="5.51549">
        <ele>1041.35</ele>
        <time>2015-10-21T12:33:58Z</time>
      </trkpt>
      <trkpt lat="43.9696" lon="5.51559">
        <ele>1042.47</ele>
        <time>2015-10-21T12:34:11Z</time>
      </trkpt>
      <trkpt lat="43.96948" lon="5.51569">
        <ele>1042.42</ele>
        <time>2015-10-21T12:34:25Z</time>
      </trkpt>
      <trkpt lat="43.96945" lon="5.51571">
        <ele>1044.62</ele>
        <time>2015-10-21T12:34:28Z</time>
      </trkpt>
      <trkpt lat="43.96933" lon="5.51582">
        <ele>1045.05</ele>
        <time>2015-10-21T12:34:44Z</time>
      </trkpt>
      <trkpt lat="43.96918" lon="5.51593">
        <ele>1046.48</ele>
        <time>2015-10-21T12:35:01Z</time>
      </trkpt>
      <trkpt lat="43.96901" lon="5.51604">
        <ele>1047.97</ele>
        <time>2015-10-21T12:35:20Z</time>
      </trkpt>
      <trkpt lat="43.9689" lon="5.51612">
        <ele>1049.19</ele>
        <time>2015-10-21T12:35:34Z</time>
      </trkpt>
      <trkpt lat="43.96879" lon="5.51622">
        <ele>1052.72</ele>
        <time>2015-10-21T12:35:51Z</time>
      </trkpt>
      <trkpt lat="43.96878" lon="5.51623">
        <ele>1052.71</ele>
        <time>2015-10-21T12:35:52Z</time>
      </trkpt>
      <trkpt lat="43.96865" lon="5.51636">
        <ele>1052.47</ele>
        <time>2015-10-21T12:36:08Z</time>
      </trkpt>
      <trkpt lat="43.96848" lon="5.5165">
        <ele>1053.41</ele>
        <time>2015-10-21T12:36:27Z</time>
      </trkpt>
      <trkpt lat="43.96834" lon="5.51665">
        <ele>1054.02</ele>
        <time>2015-10-21T12:36:44Z</time>
      </trkpt>
      <trkpt lat="43.96822" lon="5.51682">
        <ele>1054.46</ele>
        <time>2015-10-21T12:37:01Z</time>
      </trkpt>
      <trkpt lat="43.96809" lon="5.51692">
        <ele>1053.02</ele>
        <time>2015-10-21T12:37:18Z</time>
      </trkpt>
      <trkpt lat="43.96798" lon="5.51699">
        <ele>1053.85</ele>
        <time>2015-10-21T12:37:45Z</time>
      </trkpt>
      <trkpt lat="43.96786" lon="5.51704">
        <ele>1052.55</ele>
        <time>2015-10-21T12:38:00Z</time>
      </trkpt>
      <trkpt lat="43.96778" lon="5.51708">
        <ele>1051.42</ele>
        <time>2015-10-21T12:38:09Z</time>
      </trkpt>
      <trkpt lat="43.96759" lon="5.51719">
        <ele>1050.97</ele>
        <time>2015-10-21T12:38:29Z</time>
      </trkpt>
      <trkpt lat="43.96748" lon="5.51725">
        <ele>1049.96</ele>
        <time>2015-10-21T12:38:43Z</time>
      </trkpt>
      <trkpt lat="43.96735" lon="5.51727">
        <ele>1048.75</ele>
        <time>2015-10-21T12:39:00Z</time>
      </trkpt>
      <trkpt lat="43.96721" lon="5.51737">
        <ele>1047.5</ele>
        <time>2015-10-21T12:39:14Z</time>
      </trkpt>
      <trkpt lat="43.96716" lon="5.51744">
        <ele>1047.09</ele>
        <time>2015-10-21T12:39:23Z</time>
      </trkpt>
      <trkpt lat="43.96715" lon="5.51747">
        <ele>1046.75</ele>
        <time>2015-10-21T12:39:25Z</time>
      </trkpt>
      <trkpt lat="43.9672" lon="5.51765">
        <ele>1047.21</ele>
        <time>2015-10-21T12:39:37Z</time>
      </trkpt>
      <trkpt lat="43.96722" lon="5.51777">
        <ele>1047.07</ele>
        <time>2015-10-21T12:39:45Z</time>
      </trkpt>
      <trkpt lat="43.96729" lon="5.51799">
        <ele>1047.51</ele>
        <time>2015-10-21T12:40:02Z</time>
      </trkpt>
      <trkpt lat="43.96732" lon="5.51822">
        <ele>1046.76</ele>
        <time>2015-10-21T12:40:19Z</time>
      </trkpt>
      <trkpt lat="43.96737" lon="5.51842">
        <ele>1045.83</ele>
        <time>2015-10-21T12:40:33Z</time>
      </trkpt>
      <trkpt lat="43.96737" lon="5.51843">
        <ele>1046.34</ele>
        <time>2015-10-21T12:40:34Z</time>
      </trkpt>
      <trkpt lat="43.96735" lon="5.51863">
        <ele>1046.36</ele>
        <time>2015-10-21T12:40:49Z</time>
      </trkpt>
      <trkpt lat="43.9673" lon="5.51882">
        <ele>1047.56</ele>
        <time>2015-10-21T12:41:04Z</time>
      </trkpt>
      <trkpt lat="43.96725" lon="5.51899">
        <ele>1049.87</ele>
        <time>2015-10-21T12:41:21Z</time>
      </trkpt>
      <trkpt lat="43.96722" lon="5.51904">
        <ele>1049.86</ele>
        <time>2015-10-21T12:41:26Z</time>
      </trkpt>
      <trkpt lat="43.96711" lon="5.51918">
        <ele>1052.06</ele>
        <time>2015-10-21T12:41:42Z</time>
      </trkpt>
      <trkpt lat="43.96708" lon="5.51922">
        <ele>1052.96</ele>
        <time>2015-10-21T12:41:47Z</time>
      </trkpt>
      <trkpt lat="43.96696" lon="5.51936">
        <ele>1053.93</ele>
        <time>2015-10-21T12:42:03Z</time>
      </trkpt>
      <trkpt lat="43.96692" lon="5.51942">
        <ele>1056.24</ele>
        <time>2015-10-21T12:42:10Z</time>
      </trkpt>
      <trkpt lat="43.96691" lon="5.51944">
        <ele>1055.17</ele>
        <time>2015-10-21T12:42:12Z</time>
      </trkpt>
      <trkpt lat="43.96682" lon="5.51958">
        <ele>1055.95</ele>
        <time>2015-10-21T12:42:27Z</time>
      </trkpt>
      <trkpt lat="43.96668" lon="5.51977">
        <ele>1057.22</ele>
        <time>2015-10-21T12:42:48Z</time>
      </trkpt>
      <trkpt lat="43.96659" lon="5.51989">
        <ele>1058.21</ele>
        <time>2015-10-21T12:43:01Z</time>
      </trkpt>
      <trkpt lat="43.96647" lon="5.52008">
        <ele>1059.59</ele>
        <time>2015-10-21T12:43:18Z</time>
      </trkpt>
      <trkpt lat="43.96637" lon="5.52022">
        <ele>1061.17</ele>
        <time>2015-10-21T12:43:34Z</time>
      </trkpt>
      <trkpt lat="43.96626" lon="5.52037">
        <ele>1061.5</ele>
        <time>2015-10-21T12:43:49Z</time>
      </trkpt>
      <trkpt lat="43.96616" lon="5.52055">
        <ele>1063.31</ele>
        <time>2015-10-21T12:44:06Z</time>
      </trkpt>
      <trkpt lat="43.96607" lon="5.5207">
        <ele>1063.75</ele>
        <time>2015-10-21T12:44:21Z</time>
      </trkpt>
      <trkpt lat="43.96596" lon="5.52086">
        <ele>1064</ele>
        <time>2015-10-21T12:44:37Z</time>
      </trkpt>
      <trkpt lat="43.96594" lon="5.52088">
        <ele>1063.98</ele>
        <time>2015-10-21T12:44:39Z</time>
      </trkpt>
      <trkpt lat="43.96581" lon="5.52108">
        <ele>1063.74</ele>
        <time>2015-10-21T12:44:57Z</time>
      </trkpt>
      <trkpt lat="43.96579" lon="5.52112">
        <ele>1063.4</ele>
        <time>2015-10-21T12:45:01Z</time>
      </trkpt>
      <trkpt lat="43.96578" lon="5.52125">
        <ele>1063.21</ele>
        <time>2015-10-21T12:45:19Z</time>
      </trkpt>
      <trkpt lat="43.96578" lon="5.52123">
        <ele>1062.89</ele>
        <time>2015-10-21T12:45:37Z</time>
      </trkpt>
      <trkpt lat="43.96577" lon="5.52122">
        <ele>1063.41</ele>
        <time>2015-10-21T12:46:16Z</time>
      </trkpt>
      <trkpt lat="43.96573" lon="5.52121">
        <ele>1063.03</ele>
        <time>2015-10-21T12:46:20Z</time>
      </trkpt>
      <trkpt lat="43.96562" lon="5.5211">
        <ele>1061.46</ele>
        <time>2015-10-21T12:46:32Z</time>
      </trkpt>
      <trkpt lat="43.96548" lon="5.52096">
        <ele>1060.24</ele>
        <time>2015-10-21T12:46:49Z</time>
      </trkpt>
      <trkpt lat="43.96533" lon="5.52083">
        <ele>1059.32</ele>
        <time>2015-10-21T12:47:04Z</time>
      </trkpt>
      <trkpt lat="43.96521" lon="5.52095">
        <ele>1059.12</ele>
        <time>2015-10-21T12:47:16Z</time>
      </trkpt>
      <trkpt lat="43.96513" lon="5.52113">
        <ele>1059.51</ele>
        <time>2015-10-21T12:47:29Z</time>
      </trkpt>
      <trkpt lat="43.96507" lon="5.52129">
        <ele>1059.37</ele>
        <time>2015-10-21T12:47:42Z</time>
      </trkpt>
      <trkpt lat="43.96498" lon="5.52146">
        <ele>1058.77</ele>
        <time>2015-10-21T12:47:54Z</time>
      </trkpt>
      <trkpt lat="43.96497" lon="5.52149">
        <ele>1058.59</ele>
        <time>2015-10-21T12:47:56Z</time>
      </trkpt>
      <trkpt lat="43.96485" lon="5.52173">
        <ele>1057.21</ele>
        <time>2015-10-21T12:48:13Z</time>
      </trkpt>
      <trkpt lat="43.96474" lon="5.52194">
        <ele>1056.23</ele>
        <time>2015-10-21T12:48:28Z</time>
      </trkpt>
      <trkpt lat="43.96468" lon="5.52214">
        <ele>1055.33</ele>
        <time>2015-10-21T12:48:43Z</time>
      </trkpt>
      <trkpt lat="43.96465" lon="5.52226">
        <ele>1055.05</ele>
        <time>2015-10-21T12:48:59Z</time>
      </trkpt>
      <trkpt lat="43.96462" lon="5.52232">
        <ele>1054.56</ele>
        <time>2015-10-21T12:49:17Z</time>
      </trkpt>
      <trkpt lat="43.96462" lon="5.52239">
        <ele>1054.56</ele>
        <time>2015-10-21T12:49:35Z</time>
      </trkpt>
      <trkpt lat="43.96457" lon="5.52253">
        <ele>1053.21</ele>
        <time>2015-10-21T12:49:53Z</time>
      </trkpt>
      <trkpt lat="43.96453" lon="5.52271">
        <ele>1051.31</ele>
        <time>2015-10-21T12:50:10Z</time>
      </trkpt>
      <trkpt lat="43.96452" lon="5.5228">
        <ele>1050.75</ele>
        <time>2015-10-21T12:50:17Z</time>
      </trkpt>
      <trkpt lat="43.96455" lon="5.52297">
        <ele>1049.35</ele>
        <time>2015-10-21T12:50:33Z</time>
      </trkpt>
      <trkpt lat="43.96457" lon="5.52302">
        <ele>1049</ele>
        <time>2015-10-21T12:50:37Z</time>
      </trkpt>
      <trkpt lat="43.96464" lon="5.5232">
        <ele>1047.02</ele>
        <time>2015-10-21T12:50:53Z</time>
      </trkpt>
      <trkpt lat="43.96462" lon="5.52338">
        <ele>1044.42</ele>
        <time>2015-10-21T12:51:10Z</time>
      </trkpt>
      <trkpt lat="43.96456" lon="5.52354">
        <ele>1041.78</ele>
        <time>2015-10-21T12:51:26Z</time>
      </trkpt>
      <trkpt lat="43.96449" lon="5.5237">
        <ele>1038.71</ele>
        <time>2015-10-21T12:51:41Z</time>
      </trkpt>
      <trkpt lat="43.96443" lon="5.52391">
        <ele>1035.63</ele>
        <time>2015-10-21T12:52:02Z</time>
      </trkpt>
      <trkpt lat="43.96436" lon="5.52413">
        <ele>1032.49</ele>
        <time>2015-10-21T12:52:21Z</time>
      </trkpt>
      <trkpt lat="43.96436" lon="5.52434">
        <ele>1029.56</ele>
        <time>2015-10-21T12:52:39Z</time>
      </trkpt>
      <trkpt lat="43.96439" lon="5.52448">
        <ele>1027.34</ele>
        <time>2015-10-21T12:52:57Z</time>
      </trkpt>
      <trkpt lat="43.96441" lon="5.52461">
        <ele>1024.26</ele>
        <time>2015-10-21T12:53:09Z</time>
      </trkpt>
      <trkpt lat="43.9644" lon="5.52474">
        <ele>1021.14</ele>
        <time>2015-10-21T12:53:25Z</time>
      </trkpt>
      <trkpt lat="43.96432" lon="5.52487">
        <ele>1018.24</ele>
        <time>2015-10-21T12:53:44Z</time>
      </trkpt>
      <trkpt lat="43.96425" lon="5.52504">
        <ele>1015.07</ele>
        <time>2015-10-21T12:54:02Z</time>
      </trkpt>
      <trkpt lat="43.96425" lon="5.52505">
        <ele>1015.25</ele>
        <time>2015-10-21T12:54:03Z</time>
      </trkpt>
      <trkpt lat="43.96424" lon="5.52518">
        <ele>1012.23</ele>
        <time>2015-10-21T12:54:17Z</time>
      </trkpt>
      <trkpt lat="43.96423" lon="5.52532">
        <ele>1008.92</ele>
        <time>2015-10-21T12:54:31Z</time>
      </trkpt>
      <trkpt lat="43.96423" lon="5.52533">
        <ele>1008.81</ele>
        <time>2015-10-21T12:54:32Z</time>
      </trkpt>
      <trkpt lat="43.96419" lon="5.52553">
        <ele>1005.62</ele>
        <time>2015-10-21T12:54:50Z</time>
      </trkpt>
      <trkpt lat="43.96419" lon="5.52565">
        <ele>1002.5</ele>
        <time>2015-10-21T12:55:08Z</time>
      </trkpt>
      <trkpt lat="43.96418" lon="5.52578">
        <ele>999.14</ele>
        <time>2015-10-21T12:55:27Z</time>
      </trkpt>
      <trkpt lat="43.96408" lon="5.52588">
        <ele>996.51</ele>
        <time>2015-10-21T12:55:48Z</time>
      </trkpt>
      <trkpt lat="43.96398" lon="5.52594">
        <ele>994.82</ele>
        <time>2015-10-21T12:56:07Z</time>
      </trkpt>
      <trkpt lat="43.96387" lon="5.52598">
        <ele>991.57</ele>
        <time>2015-10-21T12:56:25Z</time>
      </trkpt>
      <trkpt lat="43.96371" lon="5.52605">
        <ele>988.94</ele>
        <time>2015-10-21T12:56:46Z</time>
      </trkpt>
      <trkpt lat="43.96358" lon="5.52606">
        <ele>987.59</ele>
        <time>2015-10-21T12:57:05Z</time>
      </trkpt>
      <trkpt lat="43.96341" lon="5.52608">
        <ele>984.87</ele>
        <time>2015-10-21T12:57:27Z</time>
      </trkpt>
      <trkpt lat="43.96329" lon="5.52613">
        <ele>983.71</ele>
        <time>2015-10-21T12:57:48Z</time>
      </trkpt>
      <trkpt lat="43.96327" lon="5.52613">
        <ele>982.22</ele>
        <time>2015-10-21T12:57:51Z</time>
      </trkpt>
      <trkpt lat="43.96316" lon="5.52615">
        <ele>979.52</ele>
        <time>2015-10-21T12:58:07Z</time>
      </trkpt>
      <trkpt lat="43.96313" lon="5.52617">
        <ele>980.84</ele>
        <time>2015-10-21T12:58:29Z</time>
      </trkpt>
      <trkpt lat="43.96312" lon="5.52621">
        <ele>980</ele>
        <time>2015-10-21T12:58:54Z</time>
      </trkpt>
      <trkpt lat="43.96313" lon="5.52625">
        <ele>979.62</ele>
        <time>2015-10-21T12:59:20Z</time>
      </trkpt>
      <trkpt lat="43.96315" lon="5.52624">
        <ele>978.99</ele>
        <time>2015-10-21T12:59:52Z</time>
      </trkpt>
      <trkpt lat="43.96314" lon="5.52623">
        <ele>978.74</ele>
        <time>2015-10-21T13:00:25Z</time>
      </trkpt>
      <trkpt lat="43.96317" lon="5.52628">
        <ele>978.87</ele>
        <time>2015-10-21T13:00:53Z</time>
      </trkpt>
      <trkpt lat="43.9632" lon="5.5263">
        <ele>976.96</ele>
        <time>2015-10-21T13:00:59Z</time>
      </trkpt>
      <trkpt lat="43.96324" lon="5.52636">
        <ele>976.43</ele>
        <time>2015-10-21T13:01:18Z</time>
      </trkpt>
      <trkpt lat="43.96327" lon="5.52638">
        <ele>975.76</ele>
        <time>2015-10-21T13:01:23Z</time>
      </trkpt>
      <trkpt lat="43.96329" lon="5.52639">
        <ele>975.26</ele>
        <time>2015-10-21T13:01:48Z</time>
      </trkpt>
      <trkpt lat="43.96331" lon="5.52639">
        <ele>976.02</ele>
        <time>2015-10-21T13:02:01Z</time>
      </trkpt>
      <trkpt lat="43.96331" lon="5.52639">
        <ele>974.78</ele>
        <time>2015-10-21T13:02:03Z</time>
      </trkpt>
      <trkpt lat="43.96333" lon="5.52635">
        <ele>975.44</ele>
        <time>2015-10-21T13:02:32Z</time>
      </trkpt>
      <trkpt lat="43.96337" lon="5.52639">
        <ele>973.81</ele>
        <time>2015-10-21T13:02:55Z</time>
      </trkpt>
      <trkpt lat="43.96345" lon="5.52654">
        <ele>971.65</ele>
        <time>2015-10-21T13:03:13Z</time>
      </trkpt>
      <trkpt lat="43.96353" lon="5.52664">
        <ele>969.7</ele>
        <time>2015-10-21T13:03:31Z</time>
      </trkpt>
      <trkpt lat="43.96366" lon="5.52677">
        <ele>967.14</ele>
        <time>2015-10-21T13:03:53Z</time>
      </trkpt>
      <trkpt lat="43.96376" lon="5.52689">
        <ele>965.37</ele>
        <time>2015-10-21T13:04:14Z</time>
      </trkpt>
      <trkpt lat="43.96384" lon="5.52702">
        <ele>963.59</ele>
        <time>2015-10-21T13:04:35Z</time>
      </trkpt>
      <trkpt lat="43.9639" lon="5.52718">
        <ele>960.45</ele>
        <time>2015-10-21T13:04:52Z</time>
      </trkpt>
      <trkpt lat="43.96393" lon="5.52738">
        <ele>956.59</ele>
        <time>2015-10-21T13:05:11Z</time>
      </trkpt>
      <trkpt lat="43.96395" lon="5.52752">
        <ele>953.58</ele>
        <time>2015-10-21T13:05:29Z</time>
      </trkpt>
      <trkpt lat="43.96395" lon="5.52768">
        <ele>950.36</ele>
        <time>2015-10-21T13:05:46Z</time>
      </trkpt>
      <trkpt lat="43.96395" lon="5.52775">
        <ele>949.99</ele>
        <time>2015-10-21T13:05:52Z</time>
      </trkpt>
      <trkpt lat="43.96395" lon="5.52796">
        <ele>947.59</ele>
        <time>2015-10-21T13:06:13Z</time>
      </trkpt>
      <trkpt lat="43.96395" lon="5.52815">
        <ele>944.44</ele>
        <time>2015-10-21T13:06:33Z</time>
      </trkpt>
      <trkpt lat="43.96397" lon="5.52835">
        <ele>940.97</ele>
        <time>2015-10-21T13:06:54Z</time>
      </trkpt>
      <trkpt lat="43.9642" lon="5.52852">
        <ele>937.57</ele>
        <time>2015-10-21T13:07:19Z</time>
      </trkpt>
      <trkpt lat="43.96432" lon="5.52877">
        <ele>934.62</ele>
        <time>2015-10-21T13:07:43Z</time>
      </trkpt>
      <trkpt lat="43.96433" lon="5.52879">
        <ele>934.38</ele>
        <time>2015-10-21T13:07:44Z</time>
      </trkpt>
      <trkpt lat="43.96443" lon="5.52895">
        <ele>932.84</ele>
        <time>2015-10-21T13:08:02Z</time>
      </trkpt>
      <trkpt lat="43.96456" lon="5.5291">
        <ele>930.69</ele>
        <time>2015-10-21T13:08:22Z</time>
      </trkpt>
      <trkpt lat="43.96471" lon="5.52928">
        <ele>929.12</ele>
        <time>2015-10-21T13:08:44Z</time>
      </trkpt>
      <trkpt lat="43.9648" lon="5.52942">
        <ele>928.63</ele>
        <time>2015-10-21T13:09:07Z</time>
      </trkpt>
      <trkpt lat="43.96487" lon="5.52948">
        <ele>928.39</ele>
        <time>2015-10-21T13:09:29Z</time>
      </trkpt>
      <trkpt lat="43.96485" lon="5.52952">
        <ele>928.28</ele>
        <time>2015-10-21T13:09:53Z</time>
      </trkpt>
      <trkpt lat="43.9649" lon="5.52946">
        <ele>927.91</ele>
        <time>2015-10-21T13:10:16Z</time>
      </trkpt>
      <trkpt lat="43.96483" lon="5.52949">
        <ele>927.17</ele>
        <time>2015-10-21T13:10:33Z</time>
      </trkpt>
      <trkpt lat="43.96484" lon="5.52957">
        <ele>926.3</ele>
        <time>2015-10-21T13:10:52Z</time>
      </trkpt>
      <trkpt lat="43.96483" lon="5.52958">
        <ele>927.2</ele>
        <time>2015-10-21T13:11:17Z</time>
      </trkpt>
      <trkpt lat="43.96486" lon="5.52966">
        <ele>926.44</ele>
        <time>2015-10-21T13:11:42Z</time>
      </trkpt>
      <trkpt lat="43.96491" lon="5.52967">
        <ele>925.77</ele>
        <time>2015-10-21T13:12:08Z</time>
      </trkpt>
      <trkpt lat="43.96486" lon="5.52967">
        <ele>926.37</ele>
        <time>2015-10-21T13:12:39Z</time>
      </trkpt>
      <trkpt lat="43.96482" lon="5.52967">
        <ele>927.14</ele>
        <time>2015-10-21T13:13:07Z</time>
      </trkpt>
      <trkpt lat="43.96483" lon="5.52966">
        <ele>927.02</ele>
        <time>2015-10-21T13:13:40Z</time>
      </trkpt>
      <trkpt lat="43.96483" lon="5.52966">
        <ele>926.82</ele>
        <time>2015-10-21T13:14:09Z</time>
      </trkpt>
      <trkpt lat="43.96483" lon="5.52968">
        <ele>927.08</ele>
        <time>2015-10-21T13:14:56Z</time>
      </trkpt>
      <trkpt lat="43.96484" lon="5.52965">
        <ele>927.78</ele>
        <time>2015-10-21T13:15:27Z</time>
      </trkpt>
      <trkpt lat="43.96487" lon="5.52967">
        <ele>926.61</ele>
        <time>2015-10-21T13:15:50Z</time>
      </trkpt>
      <trkpt lat="43.96496" lon="5.52981">
        <ele>923.67</ele>
        <time>2015-10-21T13:16:12Z</time>
      </trkpt>
      <trkpt lat="43.9651" lon="5.52994">
        <ele>921.73</ele>
        <time>2015-10-21T13:16:33Z</time>
      </trkpt>
      <trkpt lat="43.96522" lon="5.53005">
        <ele>919.95</ele>
        <time>2015-10-21T13:16:53Z</time>
      </trkpt>
      <trkpt lat="43.9654" lon="5.5302">
        <ele>916.8</ele>
        <time>2015-10-21T13:17:15Z</time>
      </trkpt>
      <trkpt lat="43.96549" lon="5.53035">
        <ele>914.88</ele>
        <time>2015-10-21T13:17:38Z</time>
      </trkpt>
      <trkpt lat="43.96569" lon="5.53052">
        <ele>912.15</ele>
        <time>2015-10-21T13:18:02Z</time>
      </trkpt>
      <trkpt lat="43.96584" lon="5.5306">
        <ele>909.02</ele>
        <time>2015-10-21T13:18:23Z</time>
      </trkpt>
      <trkpt lat="43.96584" lon="5.53061">
        <ele>908.86</ele>
        <time>2015-10-21T13:18:24Z</time>
      </trkpt>
      <trkpt lat="43.96598" lon="5.53071">
        <ele>906.16</ele>
        <time>2015-10-21T13:18:50Z</time>
      </trkpt>
      <trkpt lat="43.96611" lon="5.5308">
        <ele>905.34</ele>
        <time>2015-10-21T13:19:14Z</time>
      </trkpt>
      <trkpt lat="43.96646" lon="5.53091">
        <ele>902.8</ele>
        <time>2015-10-21T13:19:34Z</time>
      </trkpt>
      <trkpt lat="43.9666" lon="5.53113">
        <ele>899.25</ele>
        <time>2015-10-21T13:19:57Z</time>
      </trkpt>
      <trkpt lat="43.96676" lon="5.53132">
        <ele>895.93</ele>
        <time>2015-10-21T13:20:19Z</time>
      </trkpt>
      <trkpt lat="43.96689" lon="5.53155">
        <ele>893.65</ele>
        <time>2015-10-21T13:20:43Z</time>
      </trkpt>
      <trkpt lat="43.967" lon="5.53178">
        <ele>891.54</ele>
        <time>2015-10-21T13:21:04Z</time>
      </trkpt>
      <trkpt lat="43.96712" lon="5.53193">
        <ele>889.69</ele>
        <time>2015-10-21T13:21:26Z</time>
      </trkpt>
      <trkpt lat="43.96736" lon="5.53207">
        <ele>889.15</ele>
        <time>2015-10-21T13:21:50Z</time>
      </trkpt>
      <trkpt lat="43.96755" lon="5.53221">
        <ele>887.27</ele>
        <time>2015-10-21T13:22:13Z</time>
      </trkpt>
      <trkpt lat="43.9677" lon="5.53236">
        <ele>886.16</ele>
        <time>2015-10-21T13:22:34Z</time>
      </trkpt>
      <trkpt lat="43.96775" lon="5.53242">
        <ele>885.07</ele>
        <time>2015-10-21T13:22:43Z</time>
      </trkpt>
      <trkpt lat="43.9679" lon="5.53257">
        <ele>883.8</ele>
        <time>2015-10-21T13:23:07Z</time>
      </trkpt>
      <trkpt lat="43.96811" lon="5.53271">
        <ele>881.57</ele>
        <time>2015-10-21T13:23:29Z</time>
      </trkpt>
      <trkpt lat="43.96831" lon="5.53293">
        <ele>880.36</ele>
        <time>2015-10-21T13:23:51Z</time>
      </trkpt>
      <trkpt lat="43.96847" lon="5.5331">
        <ele>878.91</ele>
        <time>2015-10-21T13:24:13Z</time>
      </trkpt>
      <trkpt lat="43.96854" lon="5.53317">
        <ele>877.8</ele>
        <time>2015-10-21T13:24:22Z</time>
      </trkpt>
      <trkpt lat="43.96864" lon="5.53338">
        <ele>876.52</ele>
        <time>2015-10-21T13:24:42Z</time>
      </trkpt>
      <trkpt lat="43.96876" lon="5.53355">
        <ele>876.06</ele>
        <time>2015-10-21T13:25:02Z</time>
      </trkpt>
      <trkpt lat="43.96876" lon="5.53365">
        <ele>875.28</ele>
        <time>2015-10-21T13:25:13Z</time>
      </trkpt>
      <trkpt lat="43.96874" lon="5.53373">
        <ele>875.59</ele>
        <time>2015-10-21T13:25:33Z</time>
      </trkpt>
      <trkpt lat="43.96882" lon="5.53395">
        <ele>875.41</ele>
        <time>2015-10-21T13:25:51Z</time>
      </trkpt>
      <trkpt lat="43.96887" lon="5.53411">
        <ele>876.19</ele>
        <time>2015-10-21T13:26:05Z</time>
      </trkpt>
      <trkpt lat="43.96892" lon="5.53426">
        <ele>877.52</ele>
        <time>2015-10-21T13:26:17Z</time>
      </trkpt>
      <trkpt lat="43.96902" lon="5.53441">
        <ele>879.21</ele>
        <time>2015-10-21T13:26:37Z</time>
      </trkpt>
      <trkpt lat="43.96924" lon="5.5345">
        <ele>879.02</ele>
        <time>2015-10-21T13:27:00Z</time>
      </trkpt>
      <trkpt lat="43.96939" lon="5.53463">
        <ele>879.41</ele>
        <time>2015-10-21T13:27:20Z</time>
      </trkpt>
      <trkpt lat="43.96957" lon="5.53479">
        <ele>881.73</ele>
        <time>2015-10-21T13:27:40Z</time>
      </trkpt>
      <trkpt lat="43.96973" lon="5.53495">
        <ele>881.13</ele>
        <time>2015-10-21T13:27:57Z</time>
      </trkpt>
      <trkpt lat="43.9699" lon="5.53509">
        <ele>880.94</ele>
        <time>2015-10-21T13:28:20Z</time>
      </trkpt>
      <trkpt lat="43.96993" lon="5.53507">
        <ele>881.1</ele>
        <time>2015-10-21T13:28:46Z</time>
      </trkpt>
      <trkpt lat="43.96992" lon="5.53503">
        <ele>881.92</ele>
        <time>2015-10-21T13:29:14Z</time>
      </trkpt>
      <trkpt lat="43.96992" lon="5.53503">
        <ele>880.28</ele>
        <time>2015-10-21T13:29:16Z</time>
      </trkpt>
      <trkpt lat="43.96993" lon="5.53508">
        <ele>880.65</ele>
        <time>2015-10-21T13:29:39Z</time>
      </trkpt>
      <trkpt lat="43.96994" lon="5.53508">
        <ele>880.22</ele>
        <time>2015-10-21T13:30:03Z</time>
      </trkpt>
      <trkpt lat="43.96993" lon="5.53509">
        <ele>879.87</ele>
        <time>2015-10-21T13:30:31Z</time>
      </trkpt>
      <trkpt lat="43.96994" lon="5.5351">
        <ele>881.35</ele>
        <time>2015-10-21T13:30:56Z</time>
      </trkpt>
      <trkpt lat="43.97005" lon="5.53521">
        <ele>881.1</ele>
        <time>2015-10-21T13:31:14Z</time>
      </trkpt>
      <trkpt lat="43.97021" lon="5.53538">
        <ele>880.73</ele>
        <time>2015-10-21T13:31:34Z</time>
      </trkpt>
      <trkpt lat="43.97037" lon="5.53551">
        <ele>881.52</ele>
        <time>2015-10-21T13:31:53Z</time>
      </trkpt>
      <trkpt lat="43.97056" lon="5.53571">
        <ele>881.63</ele>
        <time>2015-10-21T13:32:16Z</time>
      </trkpt>
      <trkpt lat="43.97059" lon="5.53573">
        <ele>881.98</ele>
        <time>2015-10-21T13:32:18Z</time>
      </trkpt>
      <trkpt lat="43.97075" lon="5.53592">
        <ele>882.97</ele>
        <time>2015-10-21T13:32:35Z</time>
      </trkpt>
      <trkpt lat="43.97087" lon="5.5361">
        <ele>884.56</ele>
        <time>2015-10-21T13:32:50Z</time>
      </trkpt>
      <trkpt lat="43.97102" lon="5.53628">
        <ele>885.87</ele>
        <time>2015-10-21T13:33:07Z</time>
      </trkpt>
      <trkpt lat="43.97114" lon="5.53645">
        <ele>886.3</ele>
        <time>2015-10-21T13:33:22Z</time>
      </trkpt>
      <trkpt lat="43.97125" lon="5.53663">
        <ele>887.68</ele>
        <time>2015-10-21T13:33:37Z</time>
      </trkpt>
      <trkpt lat="43.97137" lon="5.53682">
        <ele>888.75</ele>
        <time>2015-10-21T13:33:55Z</time>
      </trkpt>
      <trkpt lat="43.97142" lon="5.53693">
        <ele>888.89</ele>
        <time>2015-10-21T13:34:06Z</time>
      </trkpt>
      <trkpt lat="43.97152" lon="5.53711">
        <ele>889.87</ele>
        <time>2015-10-21T13:34:21Z</time>
      </trkpt>
      <trkpt lat="43.97163" lon="5.5373">
        <ele>890.78</ele>
        <time>2015-10-21T13:34:37Z</time>
      </trkpt>
      <trkpt lat="43.97164" lon="5.53732">
        <ele>890.7</ele>
        <time>2015-10-21T13:34:38Z</time>
      </trkpt>
      <trkpt lat="43.97174" lon="5.53751">
        <ele>891.73</ele>
        <time>2015-10-21T13:34:54Z</time>
      </trkpt>
      <trkpt lat="43.97181" lon="5.53768">
        <ele>893.23</ele>
        <time>2015-10-21T13:35:08Z</time>
      </trkpt>
      <trkpt lat="43.97186" lon="5.53787">
        <ele>894.78</ele>
        <time>2015-10-21T13:35:25Z</time>
      </trkpt>
      <trkpt lat="43.97196" lon="5.53806">
        <ele>897.1</ele>
        <time>2015-10-21T13:35:45Z</time>
      </trkpt>
      <trkpt lat="43.97202" lon="5.53828">
        <ele>898.24</ele>
        <time>2015-10-21T13:36:05Z</time>
      </trkpt>
      <trkpt lat="43.97212" lon="5.53841">
        <ele>900.32</ele>
        <time>2015-10-21T13:36:23Z</time>
      </trkpt>
      <trkpt lat="43.97223" lon="5.53859">
        <ele>900.43</ele>
        <time>2015-10-21T13:36:40Z</time>
      </trkpt>
      <trkpt lat="43.97232" lon="5.53876">
        <ele>901.02</ele>
        <time>2015-10-21T13:36:56Z</time>
      </trkpt>
      <trkpt lat="43.97239" lon="5.53892">
        <ele>901.54</ele>
        <time>2015-10-21T13:37:09Z</time>
      </trkpt>
      <trkpt lat="43.97241" lon="5.53916">
        <ele>901.67</ele>
        <time>2015-10-21T13:37:26Z</time>
      </trkpt>
      <trkpt lat="43.97246" lon="5.53942">
        <ele>900.41</ele>
        <time>2015-10-21T13:37:45Z</time>
      </trkpt>
      <trkpt lat="43.9725" lon="5.53958">
        <ele>898.61</ele>
        <time>2015-10-21T13:38:02Z</time>
      </trkpt>
      <trkpt lat="43.9725" lon="5.53961">
        <ele>898.94</ele>
        <time>2015-10-21T13:38:04Z</time>
      </trkpt>
      <trkpt lat="43.97252" lon="5.53983">
        <ele>897.86</ele>
        <time>2015-10-21T13:38:18Z</time>
      </trkpt>
      <trkpt lat="43.97255" lon="5.53992">
        <ele>897.24</ele>
        <time>2015-10-21T13:38:28Z</time>
      </trkpt>
      <trkpt lat="43.97255" lon="5.54014">
        <ele>897.17</ele>
        <time>2015-10-21T13:38:46Z</time>
      </trkpt>
      <trkpt lat="43.9726" lon="5.54028">
        <ele>896.89</ele>
        <time>2015-10-21T13:39:05Z</time>
      </trkpt>
      <trkpt lat="43.97264" lon="5.5403">
        <ele>895.54</ele>
        <time>2015-10-21T13:39:10Z</time>
      </trkpt>
      <trkpt lat="43.97283" lon="5.54028">
        <ele>895.26</ele>
        <time>2015-10-21T13:39:28Z</time>
      </trkpt>
      <trkpt lat="43.97302" lon="5.54025">
        <ele>893.13</ele>
        <time>2015-10-21T13:39:46Z</time>
      </trkpt>
      <trkpt lat="43.97323" lon="5.54025">
        <ele>891.14</ele>
        <time>2015-10-21T13:40:07Z</time>
      </trkpt>
      <trkpt lat="43.97341" lon="5.54021">
        <ele>890.23</ele>
        <time>2015-10-21T13:40:23Z</time>
      </trkpt>
      <trkpt lat="43.97349" lon="5.54031">
        <ele>889.34</ele>
        <time>2015-10-21T13:40:40Z</time>
      </trkpt>
      <trkpt lat="43.97351" lon="5.54039">
        <ele>888.94</ele>
        <time>2015-10-21T13:40:52Z</time>
      </trkpt>
      <trkpt lat="43.97346" lon="5.54051">
        <ele>889.34</ele>
        <time>2015-10-21T13:41:03Z</time>
      </trkpt>
      <trkpt lat="43.97334" lon="5.54063">
        <ele>889.78</ele>
        <time>2015-10-21T13:41:22Z</time>
      </trkpt>
      <trkpt lat="43.97332" lon="5.54077">
        <ele>890.34</ele>
        <time>2015-10-21T13:41:39Z</time>
      </trkpt>
      <trkpt lat="43.97341" lon="5.54077">
        <ele>889.06</ele>
        <time>2015-10-21T13:41:51Z</time>
      </trkpt>
      <trkpt lat="43.97344" lon="5.54075">
        <ele>888.97</ele>
        <time>2015-10-21T13:41:54Z</time>
      </trkpt>
      <trkpt lat="43.97354" lon="5.54072">
        <ele>888.41</ele>
        <time>2015-10-21T13:42:05Z</time>
      </trkpt>
      <trkpt lat="43.97365" lon="5.54079">
        <ele>887.41</ele>
        <time>2015-10-21T13:42:19Z</time>
      </trkpt>
      <trkpt lat="43.9738" lon="5.54084">
        <ele>886.52</ele>
        <time>2015-10-21T13:42:37Z</time>
      </trkpt>
      <trkpt lat="43.97395" lon="5.54085">
        <ele>885.71</ele>
        <time>2015-10-21T13:42:55Z</time>
      </trkpt>
      <trkpt lat="43.97403" lon="5.54094">
        <ele>884.78</ele>
        <time>2015-10-21T13:43:11Z</time>
      </trkpt>
      <trkpt lat="43.97415" lon="5.54113">
        <ele>883.56</ele>
        <time>2015-10-21T13:43:29Z</time>
      </trkpt>
      <trkpt lat="43.97423" lon="5.54134">
        <ele>882.3</ele>
        <time>2015-10-21T13:43:47Z</time>
      </trkpt>
      <trkpt lat="43.9743" lon="5.54154">
        <ele>881.06</ele>
        <time>2015-10-21T13:44:02Z</time>
      </trkpt>
      <trkpt lat="43.97435" lon="5.54173">
        <ele>879.9</ele>
        <time>2015-10-21T13:44:15Z</time>
      </trkpt>
      <trkpt lat="43.97438" lon="5.54188">
        <ele>879.74</ele>
        <time>2015-10-21T13:44:26Z</time>
      </trkpt>
      <trkpt lat="43.97439" lon="5.54191">
        <ele>878.12</ele>
        <time>2015-10-21T13:44:28Z</time>
      </trkpt>
      <trkpt lat="43.97443" lon="5.54212">
        <ele>877.42</ele>
        <time>2015-10-21T13:44:42Z</time>
      </trkpt>
      <trkpt lat="43.9745" lon="5.5424">
        <ele>876.39</ele>
        <time>2015-10-21T13:44:59Z</time>
      </trkpt>
      <trkpt lat="43.97453" lon="5.54246">
        <ele>875.14</ele>
        <time>2015-10-21T13:45:04Z</time>
      </trkpt>
      <trkpt lat="43.97448" lon="5.54266">
        <ele>874.5</ele>
        <time>2015-10-21T13:45:20Z</time>
      </trkpt>
      <trkpt lat="43.97439" lon="5.54286">
        <ele>873.49</ele>
        <time>2015-10-21T13:45:37Z</time>
      </trkpt>
      <trkpt lat="43.97429" lon="5.54297">
        <ele>873.81</ele>
        <time>2015-10-21T13:45:51Z</time>
      </trkpt>
      <trkpt lat="43.97428" lon="5.54304">
        <ele>873.59</ele>
        <time>2015-10-21T13:45:55Z</time>
      </trkpt>
      <trkpt lat="43.97428" lon="5.54325">
        <ele>872.68</ele>
        <time>2015-10-21T13:46:10Z</time>
      </trkpt>
      <trkpt lat="43.97431" lon="5.54344">
        <ele>870.62</ele>
        <time>2015-10-21T13:46:26Z</time>
      </trkpt>
      <trkpt lat="43.97426" lon="5.54361">
        <ele>870.05</ele>
        <time>2015-10-21T13:46:42Z</time>
      </trkpt>
      <trkpt lat="43.97414" lon="5.54377">
        <ele>868.48</ele>
        <time>2015-10-21T13:47:05Z</time>
      </trkpt>
      <trkpt lat="43.97399" lon="5.54388">
        <ele>868.63</ele>
        <time>2015-10-21T13:47:27Z</time>
      </trkpt>
      <trkpt lat="43.97382" lon="5.54406">
        <ele>868.85</ele>
        <time>2015-10-21T13:47:49Z</time>
      </trkpt>
      <trkpt lat="43.97371" lon="5.54416">
        <ele>869.6</ele>
        <time>2015-10-21T13:48:06Z</time>
      </trkpt>
      <trkpt lat="43.97365" lon="5.54421">
        <ele>869.37</ele>
        <time>2015-10-21T13:48:26Z</time>
      </trkpt>
      <trkpt lat="43.9736" lon="5.54439">
        <ele>867.39</ele>
        <time>2015-10-21T13:48:42Z</time>
      </trkpt>
      <trkpt lat="43.97355" lon="5.54458">
        <ele>864.68</ele>
        <time>2015-10-21T13:49:03Z</time>
      </trkpt>
      <trkpt lat="43.97351" lon="5.54476">
        <ele>862.03</ele>
        <time>2015-10-21T13:49:26Z</time>
      </trkpt>
      <trkpt lat="43.97346" lon="5.54495">
        <ele>858.53</ele>
        <time>2015-10-21T13:49:48Z</time>
      </trkpt>
      <trkpt lat="43.97339" lon="5.54513">
        <ele>856.06</ele>
        <time>2015-10-21T13:50:10Z</time>
      </trkpt>
      <trkpt lat="43.97332" lon="5.5453">
        <ele>853.01</ele>
        <time>2015-10-21T13:50:31Z</time>
      </trkpt>
      <trkpt lat="43.9732" lon="5.54546">
        <ele>850.82</ele>
        <time>2015-10-21T13:50:52Z</time>
      </trkpt>
      <trkpt lat="43.97309" lon="5.54557">
        <ele>848.4</ele>
        <time>2015-10-21T13:51:12Z</time>
      </trkpt>
      <trkpt lat="43.97292" lon="5.54566">
        <ele>845.6</ele>
        <time>2015-10-21T13:51:32Z</time>
      </trkpt>
      <trkpt lat="43.97279" lon="5.54579">
        <ele>842.46</ele>
        <time>2015-10-21T13:51:52Z</time>
      </trkpt>
      <trkpt lat="43.97268" lon="5.54596">
        <ele>840.93</ele>
        <time>2015-10-21T13:52:15Z</time>
      </trkpt>
      <trkpt lat="43.97256" lon="5.54617">
        <ele>838.55</ele>
        <time>2015-10-21T13:52:37Z</time>
      </trkpt>
      <trkpt lat="43.97245" lon="5.54634">
        <ele>837.02</ele>
        <time>2015-10-21T13:52:56Z</time>
      </trkpt>
      <trkpt lat="43.97238" lon="5.54656">
        <ele>835.2</ele>
        <time>2015-10-21T13:53:18Z</time>
      </trkpt>
      <trkpt lat="43.97228" lon="5.54675">
        <ele>832.98</ele>
        <time>2015-10-21T13:53:38Z</time>
      </trkpt>
      <trkpt lat="43.97219" lon="5.54687">
        <ele>830.96</ele>
        <time>2015-10-21T13:53:55Z</time>
      </trkpt>
      <trkpt lat="43.97209" lon="5.54702">
        <ele>828.47</ele>
        <time>2015-10-21T13:54:12Z</time>
      </trkpt>
      <trkpt lat="43.97202" lon="5.54721">
        <ele>826.58</ele>
        <time>2015-10-21T13:54:33Z</time>
      </trkpt>
      <trkpt lat="43.97195" lon="5.54733">
        <ele>824</ele>
        <time>2015-10-21T13:54:48Z</time>
      </trkpt>
      <trkpt lat="43.97187" lon="5.54751">
        <ele>820.98</ele>
        <time>2015-10-21T13:55:09Z</time>
      </trkpt>
      <trkpt lat="43.97178" lon="5.54772">
        <ele>818.79</ele>
        <time>2015-10-21T13:55:29Z</time>
      </trkpt>
      <trkpt lat="43.97164" lon="5.54789">
        <ele>816.87</ele>
        <time>2015-10-21T13:55:51Z</time>
      </trkpt>
      <trkpt lat="43.97151" lon="5.54804">
        <ele>813.23</ele>
        <time>2015-10-21T13:56:11Z</time>
      </trkpt>
      <trkpt lat="43.97151" lon="5.54805">
        <ele>813</ele>
        <time>2015-10-21T13:56:12Z</time>
      </trkpt>
      <trkpt lat="43.97139" lon="5.54816">
        <ele>810.65</ele>
        <time>2015-10-21T13:56:32Z</time>
      </trkpt>
      <trkpt lat="43.97133" lon="5.54828">
        <ele>809.09</ele>
        <time>2015-10-21T13:56:51Z</time>
      </trkpt>
      <trkpt lat="43.97139" lon="5.54836">
        <ele>808.36</ele>
        <time>2015-10-21T13:57:13Z</time>
      </trkpt>
      <trkpt lat="43.97146" lon="5.54848">
        <ele>806.13</ele>
        <time>2015-10-21T13:57:28Z</time>
      </trkpt>
      <trkpt lat="43.97149" lon="5.54863">
        <ele>802.64</ele>
        <time>2015-10-21T13:57:43Z</time>
      </trkpt>
      <trkpt lat="43.97136" lon="5.54867">
        <ele>800.65</ele>
        <time>2015-10-21T13:58:02Z</time>
      </trkpt>
      <trkpt lat="43.97122" lon="5.54862">
        <ele>798.3</ele>
        <time>2015-10-21T13:58:20Z</time>
      </trkpt>
      <trkpt lat="43.9711" lon="5.54854">
        <ele>795.14</ele>
        <time>2015-10-21T13:58:37Z</time>
      </trkpt>
      <trkpt lat="43.97094" lon="5.54847">
        <ele>791.97</ele>
        <time>2015-10-21T13:58:58Z</time>
      </trkpt>
      <trkpt lat="43.9707" lon="5.54863">
        <ele>790.09</ele>
        <time>2015-10-21T13:59:21Z</time>
      </trkpt>
      <trkpt lat="43.97056" lon="5.54878">
        <ele>787.82</ele>
        <time>2015-10-21T13:59:42Z</time>
      </trkpt>
      <trkpt lat="43.97043" lon="5.54892">
        <ele>785.86</ele>
        <time>2015-10-21T14:00:04Z</time>
      </trkpt>
      <trkpt lat="43.97025" lon="5.54906">
        <ele>783.35</ele>
        <time>2015-10-21T14:00:26Z</time>
      </trkpt>
      <trkpt lat="43.97023" lon="5.54907">
        <ele>782.4</ele>
        <time>2015-10-21T14:00:28Z</time>
      </trkpt>
      <trkpt lat="43.9701" lon="5.54918">
        <ele>780.81</ele>
        <time>2015-10-21T14:00:48Z</time>
      </trkpt>
      <trkpt lat="43.97004" lon="5.54936">
        <ele>780.04</ele>
        <time>2015-10-21T14:01:08Z</time>
      </trkpt>
      <trkpt lat="43.97001" lon="5.54952">
        <ele>779.41</ele>
        <time>2015-10-21T14:01:21Z</time>
      </trkpt>
      <trkpt lat="43.97003" lon="5.54955">
        <ele>779.43</ele>
        <time>2015-10-21T14:01:55Z</time>
      </trkpt>
      <trkpt lat="43.97003" lon="5.54954">
        <ele>779.29</ele>
        <time>2015-10-21T14:02:22Z</time>
      </trkpt>
      <trkpt lat="43.97002" lon="5.54957">
        <ele>779.77</ele>
        <time>2015-10-21T14:02:51Z</time>
      </trkpt>
      <trkpt lat="43.97008" lon="5.54962">
        <ele>778.99</ele>
        <time>2015-10-21T14:03:13Z</time>
      </trkpt>
      <trkpt lat="43.97019" lon="5.54972">
        <ele>779.61</ele>
        <time>2015-10-21T14:03:36Z</time>
      </trkpt>
      <trkpt lat="43.97027" lon="5.54987">
        <ele>779.6</ele>
        <time>2015-10-21T14:03:54Z</time>
      </trkpt>
      <trkpt lat="43.97032" lon="5.54994">
        <ele>780.01</ele>
        <time>2015-10-21T14:04:02Z</time>
      </trkpt>
      <trkpt lat="43.97041" lon="5.55011">
        <ele>780.67</ele>
        <time>2015-10-21T14:04:21Z</time>
      </trkpt>
      <trkpt lat="43.97049" lon="5.55026">
        <ele>781.2</ele>
        <time>2015-10-21T14:04:36Z</time>
      </trkpt>
      <trkpt lat="43.97065" lon="5.55048">
        <ele>781.75</ele>
        <time>2015-10-21T14:04:55Z</time>
      </trkpt>
      <trkpt lat="43.97075" lon="5.55067">
        <ele>782.45</ele>
        <time>2015-10-21T14:05:15Z</time>
      </trkpt>
      <trkpt lat="43.97089" lon="5.55082">
        <ele>782.58</ele>
        <time>2015-10-21T14:05:34Z</time>
      </trkpt>
      <trkpt lat="43.97108" lon="5.55103">
        <ele>783.29</ele>
        <time>2015-10-21T14:05:54Z</time>
      </trkpt>
      <trkpt lat="43.97119" lon="5.5512">
        <ele>784.69</ele>
        <time>2015-10-21T14:06:10Z</time>
      </trkpt>
      <trkpt lat="43.97128" lon="5.55135">
        <ele>786.08</ele>
        <time>2015-10-21T14:06:28Z</time>
      </trkpt>
      <trkpt lat="43.9713" lon="5.55139">
        <ele>785.44</ele>
        <time>2015-10-21T14:06:32Z</time>
      </trkpt>
      <trkpt lat="43.97134" lon="5.55156">
        <ele>786.5</ele>
        <time>2015-10-21T14:06:50Z</time>
      </trkpt>
      <trkpt lat="43.97138" lon="5.55173">
        <ele>788.2</ele>
        <time>2015-10-21T14:07:05Z</time>
      </trkpt>
      <trkpt lat="43.97143" lon="5.55186">
        <ele>789.36</ele>
        <time>2015-10-21T14:07:20Z</time>
      </trkpt>
      <trkpt lat="43.9715" lon="5.55205">
        <ele>789.53</ele>
        <time>2015-10-21T14:07:36Z</time>
      </trkpt>
      <trkpt lat="43.97155" lon="5.55227">
        <ele>790.62</ele>
        <time>2015-10-21T14:07:54Z</time>
      </trkpt>
      <trkpt lat="43.97162" lon="5.55249">
        <ele>790.48</ele>
        <time>2015-10-21T14:08:16Z</time>
      </trkpt>
      <trkpt lat="43.97174" lon="5.5528">
        <ele>790.36</ele>
        <time>2015-10-21T14:08:37Z</time>
      </trkpt>
      <trkpt lat="43.97182" lon="5.55305">
        <ele>789.39</ele>
        <time>2015-10-21T14:08:54Z</time>
      </trkpt>
      <trkpt lat="43.97188" lon="5.55327">
        <ele>789.27</ele>
        <time>2015-10-21T14:09:12Z</time>
      </trkpt>
      <trkpt lat="43.97194" lon="5.55349">
        <ele>788.25</ele>
        <time>2015-10-21T14:09:28Z</time>
      </trkpt>
      <trkpt lat="43.972" lon="5.55374">
        <ele>787.93</ele>
        <time>2015-10-21T14:09:47Z</time>
      </trkpt>
      <trkpt lat="43.97201" lon="5.55381">
        <ele>789.14</ele>
        <time>2015-10-21T14:09:52Z</time>
      </trkpt>
      <trkpt lat="43.97202" lon="5.55384">
        <ele>787.35</ele>
        <time>2015-10-21T14:09:54Z</time>
      </trkpt>
      <trkpt lat="43.97204" lon="5.55403">
        <ele>786.87</ele>
        <time>2015-10-21T14:10:09Z</time>
      </trkpt>
      <trkpt lat="43.97207" lon="5.55424">
        <ele>785.27</ele>
        <time>2015-10-21T14:10:26Z</time>
      </trkpt>
      <trkpt lat="43.9721" lon="5.55437">
        <ele>785.19</ele>
        <time>2015-10-21T14:10:44Z</time>
      </trkpt>
      <trkpt lat="43.97214" lon="5.55453">
        <ele>783.96</ele>
        <time>2015-10-21T14:10:58Z</time>
      </trkpt>
      <trkpt lat="43.97214" lon="5.55475">
        <ele>783.09</ele>
        <time>2015-10-21T14:11:15Z</time>
      </trkpt>
      <trkpt lat="43.97217" lon="5.55496">
        <ele>779.98</ele>
        <time>2015-10-21T14:11:32Z</time>
      </trkpt>
      <trkpt lat="43.9722" lon="5.55514">
        <ele>779.79</ele>
        <time>2015-10-21T14:11:49Z</time>
      </trkpt>
      <trkpt lat="43.97222" lon="5.55517">
        <ele>777.91</ele>
        <time>2015-10-21T14:11:52Z</time>
      </trkpt>
      <trkpt lat="43.97223" lon="5.55522">
        <ele>777.17</ele>
        <time>2015-10-21T14:12:09Z</time>
      </trkpt>
      <trkpt lat="43.97225" lon="5.55525">
        <ele>777.34</ele>
        <time>2015-10-21T14:12:27Z</time>
      </trkpt>
      <trkpt lat="43.97228" lon="5.55542">
        <ele>774.29</ele>
        <time>2015-10-21T14:12:43Z</time>
      </trkpt>
      <trkpt lat="43.97229" lon="5.55561">
        <ele>771.79</ele>
        <time>2015-10-21T14:13:00Z</time>
      </trkpt>
      <trkpt lat="43.97232" lon="5.55574">
        <ele>770.04</ele>
        <time>2015-10-21T14:13:11Z</time>
      </trkpt>
      <trkpt lat="43.97238" lon="5.55585">
        <ele>769.1</ele>
        <time>2015-10-21T14:13:25Z</time>
      </trkpt>
      <trkpt lat="43.97242" lon="5.55605">
        <ele>766.04</ele>
        <time>2015-10-21T14:13:43Z</time>
      </trkpt>
      <trkpt lat="43.97247" lon="5.55624">
        <ele>764.22</ele>
        <time>2015-10-21T14:14:01Z</time>
      </trkpt>
      <trkpt lat="43.97255" lon="5.5564">
        <ele>761.72</ele>
        <time>2015-10-21T14:14:17Z</time>
      </trkpt>
      <trkpt lat="43.97252" lon="5.55655">
        <ele>759.11</ele>
        <time>2015-10-21T14:14:33Z</time>
      </trkpt>
      <trkpt lat="43.97249" lon="5.55661">
        <ele>757.83</ele>
        <time>2015-10-21T14:14:41Z</time>
      </trkpt>
      <trkpt lat="43.97249" lon="5.55678">
        <ele>755.02</ele>
        <time>2015-10-21T14:14:59Z</time>
      </trkpt>
      <trkpt lat="43.97246" lon="5.55695">
        <ele>752.95</ele>
        <time>2015-10-21T14:15:15Z</time>
      </trkpt>
      <trkpt lat="43.97253" lon="5.55709">
        <ele>750.6</ele>
        <time>2015-10-21T14:15:31Z</time>
      </trkpt>
      <trkpt lat="43.97257" lon="5.55716">
        <ele>750.35</ele>
        <time>2015-10-21T14:15:46Z</time>
      </trkpt>
      <trkpt lat="43.97258" lon="5.55716">
        <ele>749.27</ele>
        <time>2015-10-21T14:16:11Z</time>
      </trkpt>
      <trkpt lat="43.97257" lon="5.55716">
        <ele>750.59</ele>
        <time>2015-10-21T14:16:38Z</time>
      </trkpt>
      <trkpt lat="43.97257" lon="5.55717">
        <ele>750.12</ele>
        <time>2015-10-21T14:16:58Z</time>
      </trkpt>
      <trkpt lat="43.97263" lon="5.55722">
        <ele>749.92</ele>
        <time>2015-10-21T14:17:28Z</time>
      </trkpt>
      <trkpt lat="43.97268" lon="5.5573">
        <ele>749.03</ele>
        <time>2015-10-21T14:17:45Z</time>
      </trkpt>
      <trkpt lat="43.97272" lon="5.55736">
        <ele>748.59</ele>
        <time>2015-10-21T14:18:06Z</time>
      </trkpt>
      <trkpt lat="43.97274" lon="5.55735">
        <ele>748.49</ele>
        <time>2015-10-21T14:18:26Z</time>
      </trkpt>
      <trkpt lat="43.97273" lon="5.55736">
        <ele>749.19</ele>
        <time>2015-10-21T14:18:45Z</time>
      </trkpt>
      <trkpt lat="43.97272" lon="5.55734">
        <ele>749.34</ele>
        <time>2015-10-21T14:19:07Z</time>
      </trkpt>
      <trkpt lat="43.97269" lon="5.55732">
        <ele>749.88</ele>
        <time>2015-10-21T14:19:28Z</time>
      </trkpt>
      <trkpt lat="43.97269" lon="5.5573">
        <ele>749.28</ele>
        <time>2015-10-21T14:19:50Z</time>
      </trkpt>
      <trkpt lat="43.97267" lon="5.55729">
        <ele>750.55</ele>
        <time>2015-10-21T14:19:53Z</time>
      </trkpt>
      <trkpt lat="43.97269" lon="5.55731">
        <ele>749.23</ele>
        <time>2015-10-21T14:20:12Z</time>
      </trkpt>
      <trkpt lat="43.97268" lon="5.55729">
        <ele>749.74</ele>
        <time>2015-10-21T14:20:32Z</time>
      </trkpt>
      <trkpt lat="43.97275" lon="5.55734">
        <ele>749.02</ele>
        <time>2015-10-21T14:20:54Z</time>
      </trkpt>
      <trkpt lat="43.97283" lon="5.55741">
        <ele>747.8</ele>
        <time>2015-10-21T14:21:13Z</time>
      </trkpt>
      <trkpt lat="43.97294" lon="5.55754">
        <ele>746.04</ele>
        <time>2015-10-21T14:21:32Z</time>
      </trkpt>
      <trkpt lat="43.97301" lon="5.55765">
        <ele>743.56</ele>
        <time>2015-10-21T14:21:49Z</time>
      </trkpt>
      <trkpt lat="43.9731" lon="5.55777">
        <ele>741.78</ele>
        <time>2015-10-21T14:22:08Z</time>
      </trkpt>
      <trkpt lat="43.97317" lon="5.5579">
        <ele>739.31</ele>
        <time>2015-10-21T14:22:23Z</time>
      </trkpt>
      <trkpt lat="43.97327" lon="5.55805">
        <ele>737.8</ele>
        <time>2015-10-21T14:22:41Z</time>
      </trkpt>
      <trkpt lat="43.97335" lon="5.55816">
        <ele>735.29</ele>
        <time>2015-10-21T14:22:57Z</time>
      </trkpt>
      <trkpt lat="43.97346" lon="5.5583">
        <ele>733.43</ele>
        <time>2015-10-21T14:23:15Z</time>
      </trkpt>
      <trkpt lat="43.97356" lon="5.55845">
        <ele>731.78</ele>
        <time>2015-10-21T14:23:34Z</time>
      </trkpt>
      <trkpt lat="43.97366" lon="5.5586">
        <ele>729.02</ele>
        <time>2015-10-21T14:23:52Z</time>
      </trkpt>
      <trkpt lat="43.97373" lon="5.55875">
        <ele>727.77</ele>
        <time>2015-10-21T14:24:07Z</time>
      </trkpt>
      <trkpt lat="43.97382" lon="5.55892">
        <ele>726.1</ele>
        <time>2015-10-21T14:24:26Z</time>
      </trkpt>
      <trkpt lat="43.97391" lon="5.55913">
        <ele>723.12</ele>
        <time>2015-10-21T14:24:46Z</time>
      </trkpt>
      <trkpt lat="43.97399" lon="5.55928">
        <ele>721.66</ele>
        <time>2015-10-21T14:25:02Z</time>
      </trkpt>
      <trkpt lat="43.97408" lon="5.55943">
        <ele>719.71</ele>
        <time>2015-10-21T14:25:17Z</time>
      </trkpt>
      <trkpt lat="43.9742" lon="5.55956">
        <ele>717.36</ele>
        <time>2015-10-21T14:25:35Z</time>
      </trkpt>
      <trkpt lat="43.9743" lon="5.55967">
        <ele>715.47</ele>
        <time>2015-10-21T14:25:51Z</time>
      </trkpt>
      <trkpt lat="43.97445" lon="5.55978">
        <ele>713.07</ele>
        <time>2015-10-21T14:26:13Z</time>
      </trkpt>
      <trkpt lat="43.97461" lon="5.55989">
        <ele>711.05</ele>
        <time>2015-10-21T14:26:33Z</time>
      </trkpt>
      <trkpt lat="43.97473" lon="5.55996">
        <ele>709.79</ele>
        <time>2015-10-21T14:26:48Z</time>
      </trkpt>
      <trkpt lat="43.97486" lon="5.56006">
        <ele>707.88</ele>
        <time>2015-10-21T14:27:06Z</time>
      </trkpt>
      <trkpt lat="43.97495" lon="5.56013">
        <ele>706.15</ele>
        <time>2015-10-21T14:27:18Z</time>
      </trkpt>
      <trkpt lat="43.97503" lon="5.56022">
        <ele>704.58</ele>
        <time>2015-10-21T14:27:29Z</time>
      </trkpt>
      <trkpt lat="43.97513" lon="5.56035">
        <ele>703.08</ele>
        <time>2015-10-21T14:27:44Z</time>
      </trkpt>
      <trkpt lat="43.97519" lon="5.56045">
        <ele>700.89</ele>
        <time>2015-10-21T14:27:56Z</time>
      </trkpt>
      <trkpt lat="43.97529" lon="5.56058">
        <ele>698.86</ele>
        <time>2015-10-21T14:28:13Z</time>
      </trkpt>
      <trkpt lat="43.9754" lon="5.56071">
        <ele>696.35</ele>
        <time>2015-10-21T14:28:31Z</time>
      </trkpt>
      <trkpt lat="43.97552" lon="5.56083">
        <ele>694.82</ele>
        <time>2015-10-21T14:28:50Z</time>
      </trkpt>
      <trkpt lat="43.97565" lon="5.56096">
        <ele>692.69</ele>
        <time>2015-10-21T14:29:08Z</time>
      </trkpt>
      <trkpt lat="43.97577" lon="5.56111">
        <ele>690.06</ele>
        <time>2015-10-21T14:29:29Z</time>
      </trkpt>
      <trkpt lat="43.9759" lon="5.56124">
        <ele>688.02</ele>
        <time>2015-10-21T14:29:48Z</time>
      </trkpt>
      <trkpt lat="43.97603" lon="5.56136">
        <ele>685.7</ele>
        <time>2015-10-21T14:30:06Z</time>
      </trkpt>
      <trkpt lat="43.97606" lon="5.56138">
        <ele>685.56</ele>
        <time>2015-10-21T14:30:09Z</time>
      </trkpt>
      <trkpt lat="43.97617" lon="5.5615">
        <ele>683.71</ele>
        <time>2015-10-21T14:30:25Z</time>
      </trkpt>
      <trkpt lat="43.9763" lon="5.56159">
        <ele>680.6</ele>
        <time>2015-10-21T14:30:45Z</time>
      </trkpt>
      <trkpt lat="43.97643" lon="5.5617">
        <ele>678.77</ele>
        <time>2015-10-21T14:31:03Z</time>
      </trkpt>
      <trkpt lat="43.97658" lon="5.5618">
        <ele>677.04</ele>
        <time>2015-10-21T14:31:21Z</time>
      </trkpt>
      <trkpt lat="43.97672" lon="5.56191">
        <ele>674.91</ele>
        <time>2015-10-21T14:31:40Z</time>
      </trkpt>
      <trkpt lat="43.97685" lon="5.56201">
        <ele>672.14</ele>
        <time>2015-10-21T14:31:57Z</time>
      </trkpt>
      <trkpt lat="43.9769" lon="5.56205">
        <ele>671.77</ele>
        <time>2015-10-21T14:32:04Z</time>
      </trkpt>
      <trkpt lat="43.97703" lon="5.56213">
        <ele>669.85</ele>
        <time>2015-10-21T14:32:21Z</time>
      </trkpt>
      <trkpt lat="43.97714" lon="5.56226">
        <ele>667.65</ele>
        <time>2015-10-21T14:32:38Z</time>
      </trkpt>
      <trkpt lat="43.97727" lon="5.56229">
        <ele>666.62</ele>
        <time>2015-10-21T14:32:55Z</time>
      </trkpt>
      <trkpt lat="43.97744" lon="5.56236">
        <ele>665.16</ele>
        <time>2015-10-21T14:33:16Z</time>
      </trkpt>
      <trkpt lat="43.97761" lon="5.5624">
        <ele>663.56</ele>
        <time>2015-10-21T14:33:38Z</time>
      </trkpt>
      <trkpt lat="43.97777" lon="5.56245">
        <ele>662.13</ele>
        <time>2015-10-21T14:33:58Z</time>
      </trkpt>
      <trkpt lat="43.97784" lon="5.56249">
        <ele>660.58</ele>
        <time>2015-10-21T14:34:06Z</time>
      </trkpt>
      <trkpt lat="43.978" lon="5.56255">
        <ele>658.69</ele>
        <time>2015-10-21T14:34:25Z</time>
      </trkpt>
      <trkpt lat="43.97816" lon="5.56262">
        <ele>657.09</ele>
        <time>2015-10-21T14:34:45Z</time>
      </trkpt>
      <trkpt lat="43.97821" lon="5.56263">
        <ele>656.84</ele>
        <time>2015-10-21T14:35:10Z</time>
      </trkpt>
      <trkpt lat="43.97827" lon="5.56264">
        <ele>655.4</ele>
        <time>2015-10-21T14:35:38Z</time>
      </trkpt>
      <trkpt lat="43.97839" lon="5.56264">
        <ele>652.35</ele>
        <time>2015-10-21T14:35:59Z</time>
      </trkpt>
      <trkpt lat="43.97845" lon="5.56265">
        <ele>650.77</ele>
        <time>2015-10-21T14:36:09Z</time>
      </trkpt>
      <trkpt lat="43.97856" lon="5.56267">
        <ele>648.09</ele>
        <time>2015-10-21T14:36:30Z</time>
      </trkpt>
      <trkpt lat="43.97868" lon="5.56269">
        <ele>644.86</ele>
        <time>2015-10-21T14:36:52Z</time>
      </trkpt>
      <trkpt lat="43.97881" lon="5.56278">
        <ele>642.94</ele>
        <time>2015-10-21T14:37:12Z</time>
      </trkpt>
      <trkpt lat="43.97884" lon="5.56279">
        <ele>642.02</ele>
        <time>2015-10-21T14:37:16Z</time>
      </trkpt>
      <trkpt lat="43.97901" lon="5.56289">
        <ele>638.99</ele>
        <time>2015-10-21T14:37:38Z</time>
      </trkpt>
      <trkpt lat="43.97921" lon="5.56304">
        <ele>636.74</ele>
        <time>2015-10-21T14:38:03Z</time>
      </trkpt>
      <trkpt lat="43.97939" lon="5.56312">
        <ele>635.4</ele>
        <time>2015-10-21T14:38:24Z</time>
      </trkpt>
      <trkpt lat="43.97949" lon="5.56318">
        <ele>635.11</ele>
        <time>2015-10-21T14:38:41Z</time>
      </trkpt>
      <trkpt lat="43.97949" lon="5.56326">
        <ele>634.74</ele>
        <time>2015-10-21T14:38:49Z</time>
      </trkpt>
      <trkpt lat="43.97951" lon="5.56345">
        <ele>634.09</ele>
        <time>2015-10-21T14:39:08Z</time>
      </trkpt>
      <trkpt lat="43.97949" lon="5.56351">
        <ele>632.77</ele>
        <time>2015-10-21T14:39:14Z</time>
      </trkpt>
      <trkpt lat="43.97949" lon="5.56355">
        <ele>632.83</ele>
        <time>2015-10-21T14:39:18Z</time>
      </trkpt>
    </trkseg>
  </trk>
</gpx>